<?xml version="1.0" encoding="UTF-8" standalone="no" ?>
<gpx xmlns="http://www.topografix.com/GPX/1/1" xmlns:xsi="http://www.w3.org/2001/XMLSchema-instance" xsi:schemaLocation="http://www.topografix.com/GPX/1/1 http://www.topografix.com/GPX/1/1/gpx.xsd" version="1.1" creator="VisuGPX - https://www.visugpx.com">
  <metadata>
    <name>Pic SAILLANT et Pic du GAR par la cabane du pic du GAR, au départ de Bézins-Garraux</name>
    <desc><![CDATA[Très belle boucle sans difficulté technique.]]></desc>
  </metadata>
  <trk>
    <name><![CDATA[20181104164737-ZvPs4]]></name>
    <trkseg>
      <trkpt lat="42.93205" lon="0.69186">
        <ele>588.95</ele>
        <time>2018-11-03T08:28:14Z</time>
      </trkpt>
      <trkpt lat="42.93212" lon="0.69196">
        <ele>591.83</ele>
        <time>2018-11-03T08:29:02Z</time>
      </trkpt>
      <trkpt lat="42.93214" lon="0.69214">
        <ele>592.79</ele>
        <time>2018-11-03T08:29:16Z</time>
      </trkpt>
      <trkpt lat="42.93215" lon="0.69231">
        <ele>594.71</ele>
        <time>2018-11-03T08:29:28Z</time>
      </trkpt>
      <trkpt lat="42.93219" lon="0.69245">
        <ele>597.12</ele>
        <time>2018-11-03T08:29:40Z</time>
      </trkpt>
      <trkpt lat="42.93221" lon="0.69261">
        <ele>599.52</ele>
        <time>2018-11-03T08:29:52Z</time>
      </trkpt>
      <trkpt lat="42.93223" lon="0.69276">
        <ele>601.44</ele>
        <time>2018-11-03T08:30:02Z</time>
      </trkpt>
      <trkpt lat="42.93225" lon="0.69291">
        <ele>602.88</ele>
        <time>2018-11-03T08:30:12Z</time>
      </trkpt>
      <trkpt lat="42.93228" lon="0.69304">
        <ele>603.85</ele>
        <time>2018-11-03T08:30:21Z</time>
      </trkpt>
      <trkpt lat="42.9323" lon="0.69319">
        <ele>605.77</ele>
        <time>2018-11-03T08:30:31Z</time>
      </trkpt>
      <trkpt lat="42.93233" lon="0.69334">
        <ele>607.69</ele>
        <time>2018-11-03T08:30:41Z</time>
      </trkpt>
      <trkpt lat="42.93235" lon="0.69346">
        <ele>609.13</ele>
        <time>2018-11-03T08:30:50Z</time>
      </trkpt>
      <trkpt lat="42.93235" lon="0.6936">
        <ele>610.57</ele>
        <time>2018-11-03T08:30:59Z</time>
      </trkpt>
      <trkpt lat="42.93237" lon="0.69373">
        <ele>612.5</ele>
        <time>2018-11-03T08:31:08Z</time>
      </trkpt>
      <trkpt lat="42.93239" lon="0.69387">
        <ele>613.46</ele>
        <time>2018-11-03T08:31:18Z</time>
      </trkpt>
      <trkpt lat="42.9324" lon="0.69401">
        <ele>615.38</ele>
        <time>2018-11-03T08:31:27Z</time>
      </trkpt>
      <trkpt lat="42.93241" lon="0.69414">
        <ele>617.3</ele>
        <time>2018-11-03T08:31:37Z</time>
      </trkpt>
      <trkpt lat="42.93241" lon="0.69431">
        <ele>618.75</ele>
        <time>2018-11-03T08:31:49Z</time>
      </trkpt>
      <trkpt lat="42.93242" lon="0.69449">
        <ele>621.63</ele>
        <time>2018-11-03T08:32:01Z</time>
      </trkpt>
      <trkpt lat="42.93242" lon="0.69466">
        <ele>623.07</ele>
        <time>2018-11-03T08:32:12Z</time>
      </trkpt>
      <trkpt lat="42.93247" lon="0.69482">
        <ele>625.47</ele>
        <time>2018-11-03T08:32:23Z</time>
      </trkpt>
      <trkpt lat="42.93255" lon="0.69491">
        <ele>627.88</ele>
        <time>2018-11-03T08:32:33Z</time>
      </trkpt>
      <trkpt lat="42.93264" lon="0.69499">
        <ele>629.8</ele>
        <time>2018-11-03T08:32:44Z</time>
      </trkpt>
      <trkpt lat="42.93269" lon="0.6951">
        <ele>631.24</ele>
        <time>2018-11-03T08:32:54Z</time>
      </trkpt>
      <trkpt lat="42.93272" lon="0.69526">
        <ele>633.17</ele>
        <time>2018-11-03T08:33:04Z</time>
      </trkpt>
      <trkpt lat="42.93276" lon="0.69544">
        <ele>635.09</ele>
        <time>2018-11-03T08:33:19Z</time>
      </trkpt>
      <trkpt lat="42.93277" lon="0.69562">
        <ele>637.49</ele>
        <time>2018-11-03T08:33:32Z</time>
      </trkpt>
      <trkpt lat="42.93278" lon="0.6958">
        <ele>638.93</ele>
        <time>2018-11-03T08:33:44Z</time>
      </trkpt>
      <trkpt lat="42.93279" lon="0.69595">
        <ele>640.38</ele>
        <time>2018-11-03T08:33:56Z</time>
      </trkpt>
      <trkpt lat="42.93276" lon="0.69613">
        <ele>642.3</ele>
        <time>2018-11-03T08:34:09Z</time>
      </trkpt>
      <trkpt lat="42.93279" lon="0.69628">
        <ele>644.22</ele>
        <time>2018-11-03T08:34:20Z</time>
      </trkpt>
      <trkpt lat="42.93283" lon="0.69642">
        <ele>646.62</ele>
        <time>2018-11-03T08:34:33Z</time>
      </trkpt>
      <trkpt lat="42.93293" lon="0.69654">
        <ele>649.51</ele>
        <time>2018-11-03T08:34:47Z</time>
      </trkpt>
      <trkpt lat="42.93293" lon="0.69669">
        <ele>651.43</ele>
        <time>2018-11-03T08:34:57Z</time>
      </trkpt>
      <trkpt lat="42.93293" lon="0.69683">
        <ele>652.87</ele>
        <time>2018-11-03T08:35:08Z</time>
      </trkpt>
      <trkpt lat="42.93298" lon="0.69696">
        <ele>653.83</ele>
        <time>2018-11-03T08:35:19Z</time>
      </trkpt>
      <trkpt lat="42.93306" lon="0.69707">
        <ele>654.31</ele>
        <time>2018-11-03T08:35:29Z</time>
      </trkpt>
      <trkpt lat="42.93316" lon="0.69715">
        <ele>655.76</ele>
        <time>2018-11-03T08:35:40Z</time>
      </trkpt>
      <trkpt lat="42.93323" lon="0.69726">
        <ele>655.76</ele>
        <time>2018-11-03T08:35:49Z</time>
      </trkpt>
      <trkpt lat="42.93332" lon="0.69734">
        <ele>656.24</ele>
        <time>2018-11-03T08:35:58Z</time>
      </trkpt>
      <trkpt lat="42.93342" lon="0.69742">
        <ele>657.2</ele>
        <time>2018-11-03T08:36:14Z</time>
      </trkpt>
      <trkpt lat="42.93351" lon="0.69749">
        <ele>658.64</ele>
        <time>2018-11-03T08:36:28Z</time>
      </trkpt>
      <trkpt lat="42.93362" lon="0.6976">
        <ele>660.08</ele>
        <time>2018-11-03T08:36:44Z</time>
      </trkpt>
      <trkpt lat="42.9337" lon="0.69771">
        <ele>661.52</ele>
        <time>2018-11-03T08:36:55Z</time>
      </trkpt>
      <trkpt lat="42.93376" lon="0.69784">
        <ele>663.45</ele>
        <time>2018-11-03T08:37:06Z</time>
      </trkpt>
      <trkpt lat="42.93384" lon="0.69795">
        <ele>665.37</ele>
        <time>2018-11-03T08:37:19Z</time>
      </trkpt>
      <trkpt lat="42.93394" lon="0.69808">
        <ele>666.81</ele>
        <time>2018-11-03T08:37:33Z</time>
      </trkpt>
      <trkpt lat="42.93402" lon="0.69817">
        <ele>669.22</ele>
        <time>2018-11-03T08:37:46Z</time>
      </trkpt>
      <trkpt lat="42.93412" lon="0.69829">
        <ele>671.62</ele>
        <time>2018-11-03T08:38:01Z</time>
      </trkpt>
      <trkpt lat="42.9342" lon="0.69839">
        <ele>673.54</ele>
        <time>2018-11-03T08:38:14Z</time>
      </trkpt>
      <trkpt lat="42.93427" lon="0.69853">
        <ele>677.39</ele>
        <time>2018-11-03T08:38:30Z</time>
      </trkpt>
      <trkpt lat="42.93435" lon="0.69846">
        <ele>680.75</ele>
        <time>2018-11-03T08:38:46Z</time>
      </trkpt>
      <trkpt lat="42.93432" lon="0.69828">
        <ele>683.15</ele>
        <time>2018-11-03T08:39:01Z</time>
      </trkpt>
      <trkpt lat="42.93426" lon="0.69806">
        <ele>687</ele>
        <time>2018-11-03T08:39:22Z</time>
      </trkpt>
      <trkpt lat="42.93421" lon="0.69791">
        <ele>689.4</ele>
        <time>2018-11-03T08:39:36Z</time>
      </trkpt>
      <trkpt lat="42.93419" lon="0.69777">
        <ele>692.29</ele>
        <time>2018-11-03T08:39:50Z</time>
      </trkpt>
      <trkpt lat="42.93414" lon="0.6976">
        <ele>694.69</ele>
        <time>2018-11-03T08:40:04Z</time>
      </trkpt>
      <trkpt lat="42.93414" lon="0.69739">
        <ele>696.61</ele>
        <time>2018-11-03T08:40:19Z</time>
      </trkpt>
      <trkpt lat="42.93415" lon="0.69719">
        <ele>699.02</ele>
        <time>2018-11-03T08:40:36Z</time>
      </trkpt>
      <trkpt lat="42.93415" lon="0.697">
        <ele>701.42</ele>
        <time>2018-11-03T08:40:50Z</time>
      </trkpt>
      <trkpt lat="42.93414" lon="0.69681">
        <ele>702.86</ele>
        <time>2018-11-03T08:41:02Z</time>
      </trkpt>
      <trkpt lat="42.93415" lon="0.69667">
        <ele>704.3</ele>
        <time>2018-11-03T08:41:14Z</time>
      </trkpt>
      <trkpt lat="42.93418" lon="0.69653">
        <ele>707.19</ele>
        <time>2018-11-03T08:41:27Z</time>
      </trkpt>
      <trkpt lat="42.93418" lon="0.69634">
        <ele>710.55</ele>
        <time>2018-11-03T08:41:41Z</time>
      </trkpt>
      <trkpt lat="42.93423" lon="0.69626">
        <ele>713.44</ele>
        <time>2018-11-03T08:41:54Z</time>
      </trkpt>
      <trkpt lat="42.93422" lon="0.69644">
        <ele>714.4</ele>
        <time>2018-11-03T08:42:08Z</time>
      </trkpt>
      <trkpt lat="42.93423" lon="0.69661">
        <ele>716.32</ele>
        <time>2018-11-03T08:42:19Z</time>
      </trkpt>
      <trkpt lat="42.93427" lon="0.69676">
        <ele>716.32</ele>
        <time>2018-11-03T08:42:30Z</time>
      </trkpt>
      <trkpt lat="42.9343" lon="0.69692">
        <ele>717.76</ele>
        <time>2018-11-03T08:42:42Z</time>
      </trkpt>
      <trkpt lat="42.93432" lon="0.69707">
        <ele>719.68</ele>
        <time>2018-11-03T08:42:53Z</time>
      </trkpt>
      <trkpt lat="42.93436" lon="0.69723">
        <ele>721.13</ele>
        <time>2018-11-03T08:43:05Z</time>
      </trkpt>
      <trkpt lat="42.93441" lon="0.69741">
        <ele>723.05</ele>
        <time>2018-11-03T08:43:19Z</time>
      </trkpt>
      <trkpt lat="42.93445" lon="0.69729">
        <ele>725.45</ele>
        <time>2018-11-03T08:43:34Z</time>
      </trkpt>
      <trkpt lat="42.93445" lon="0.69712">
        <ele>727.86</ele>
        <time>2018-11-03T08:43:47Z</time>
      </trkpt>
      <trkpt lat="42.93447" lon="0.69693">
        <ele>731.22</ele>
        <time>2018-11-03T08:44:04Z</time>
      </trkpt>
      <trkpt lat="42.93451" lon="0.69675">
        <ele>733.62</ele>
        <time>2018-11-03T08:44:19Z</time>
      </trkpt>
      <trkpt lat="42.93453" lon="0.69658">
        <ele>736.99</ele>
        <time>2018-11-03T08:44:36Z</time>
      </trkpt>
      <trkpt lat="42.93455" lon="0.69634">
        <ele>741.79</ele>
        <time>2018-11-03T08:45:01Z</time>
      </trkpt>
      <trkpt lat="42.93457" lon="0.69617">
        <ele>746.12</ele>
        <time>2018-11-03T08:45:23Z</time>
      </trkpt>
      <trkpt lat="42.93459" lon="0.69598">
        <ele>749.49</ele>
        <time>2018-11-03T08:45:42Z</time>
      </trkpt>
      <trkpt lat="42.93461" lon="0.6958">
        <ele>752.85</ele>
        <time>2018-11-03T08:46:00Z</time>
      </trkpt>
      <trkpt lat="42.93465" lon="0.69562">
        <ele>755.73</ele>
        <time>2018-11-03T08:46:17Z</time>
      </trkpt>
      <trkpt lat="42.93468" lon="0.69546">
        <ele>758.62</ele>
        <time>2018-11-03T08:46:33Z</time>
      </trkpt>
      <trkpt lat="42.93475" lon="0.69525">
        <ele>761.98</ele>
        <time>2018-11-03T08:46:53Z</time>
      </trkpt>
      <trkpt lat="42.93483" lon="0.69508">
        <ele>765.35</ele>
        <time>2018-11-03T08:47:10Z</time>
      </trkpt>
      <trkpt lat="42.93488" lon="0.69494">
        <ele>766.79</ele>
        <time>2018-11-03T08:47:26Z</time>
      </trkpt>
      <trkpt lat="42.93498" lon="0.69478">
        <ele>769.67</ele>
        <time>2018-11-03T08:47:43Z</time>
      </trkpt>
      <trkpt lat="42.93507" lon="0.69465">
        <ele>771.6</ele>
        <time>2018-11-03T08:47:57Z</time>
      </trkpt>
      <trkpt lat="42.93515" lon="0.69453">
        <ele>774</ele>
        <time>2018-11-03T08:48:10Z</time>
      </trkpt>
      <trkpt lat="42.93524" lon="0.69444">
        <ele>776.88</ele>
        <time>2018-11-03T08:48:25Z</time>
      </trkpt>
      <trkpt lat="42.9353" lon="0.69434">
        <ele>779.29</ele>
        <time>2018-11-03T08:48:39Z</time>
      </trkpt>
      <trkpt lat="42.93539" lon="0.69422">
        <ele>781.69</ele>
        <time>2018-11-03T08:48:54Z</time>
      </trkpt>
      <trkpt lat="42.93554" lon="0.69413">
        <ele>785.05</ele>
        <time>2018-11-03T08:49:12Z</time>
      </trkpt>
      <trkpt lat="42.93569" lon="0.69405">
        <ele>787.46</ele>
        <time>2018-11-03T08:49:30Z</time>
      </trkpt>
      <trkpt lat="42.9358" lon="0.69399">
        <ele>789.86</ele>
        <time>2018-11-03T08:49:45Z</time>
      </trkpt>
      <trkpt lat="42.93591" lon="0.69393">
        <ele>793.22</ele>
        <time>2018-11-03T08:50:02Z</time>
      </trkpt>
      <trkpt lat="42.93607" lon="0.69388">
        <ele>795.15</ele>
        <time>2018-11-03T08:50:19Z</time>
      </trkpt>
      <trkpt lat="42.93622" lon="0.69385">
        <ele>798.51</ele>
        <time>2018-11-03T08:50:37Z</time>
      </trkpt>
      <trkpt lat="42.93636" lon="0.69379">
        <ele>801.4</ele>
        <time>2018-11-03T08:50:55Z</time>
      </trkpt>
      <trkpt lat="42.93653" lon="0.69363">
        <ele>805.72</ele>
        <time>2018-11-03T08:52:26Z</time>
      </trkpt>
      <trkpt lat="42.93664" lon="0.69366">
        <ele>808.13</ele>
        <time>2018-11-03T08:52:41Z</time>
      </trkpt>
      <trkpt lat="42.93677" lon="0.6936">
        <ele>810.53</ele>
        <time>2018-11-03T08:53:00Z</time>
      </trkpt>
      <trkpt lat="42.93693" lon="0.69358">
        <ele>814.85</ele>
        <time>2018-11-03T08:53:24Z</time>
      </trkpt>
      <trkpt lat="42.93701" lon="0.69358">
        <ele>817.74</ele>
        <time>2018-11-03T08:54:41Z</time>
      </trkpt>
      <trkpt lat="42.93712" lon="0.69355">
        <ele>821.1</ele>
        <time>2018-11-03T08:55:36Z</time>
      </trkpt>
      <trkpt lat="42.93728" lon="0.69347">
        <ele>824.95</ele>
        <time>2018-11-03T08:56:00Z</time>
      </trkpt>
      <trkpt lat="42.93747" lon="0.69341">
        <ele>827.83</ele>
        <time>2018-11-03T08:56:21Z</time>
      </trkpt>
      <trkpt lat="42.93761" lon="0.69337">
        <ele>830.72</ele>
        <time>2018-11-03T08:56:37Z</time>
      </trkpt>
      <trkpt lat="42.93777" lon="0.69344">
        <ele>833.12</ele>
        <time>2018-11-03T08:56:56Z</time>
      </trkpt>
      <trkpt lat="42.93788" lon="0.69349">
        <ele>836</ele>
        <time>2018-11-03T08:57:12Z</time>
      </trkpt>
      <trkpt lat="42.93801" lon="0.69356">
        <ele>838.41</ele>
        <time>2018-11-03T08:57:30Z</time>
      </trkpt>
      <trkpt lat="42.9381" lon="0.6937">
        <ele>840.81</ele>
        <time>2018-11-03T08:57:47Z</time>
      </trkpt>
      <trkpt lat="42.93817" lon="0.69378">
        <ele>842.73</ele>
        <time>2018-11-03T08:57:58Z</time>
      </trkpt>
      <trkpt lat="42.93832" lon="0.69378">
        <ele>844.66</ele>
        <time>2018-11-03T08:58:13Z</time>
      </trkpt>
      <trkpt lat="42.93847" lon="0.69371">
        <ele>848.02</ele>
        <time>2018-11-03T08:58:33Z</time>
      </trkpt>
      <trkpt lat="42.9386" lon="0.69366">
        <ele>850.42</ele>
        <time>2018-11-03T08:58:56Z</time>
      </trkpt>
      <trkpt lat="42.93886" lon="0.69366">
        <ele>853.31</ele>
        <time>2018-11-03T08:59:22Z</time>
      </trkpt>
      <trkpt lat="42.93902" lon="0.69368">
        <ele>856.19</ele>
        <time>2018-11-03T08:59:44Z</time>
      </trkpt>
      <trkpt lat="42.93915" lon="0.69371">
        <ele>859.08</ele>
        <time>2018-11-03T08:59:59Z</time>
      </trkpt>
      <trkpt lat="42.93936" lon="0.69374">
        <ele>861</ele>
        <time>2018-11-03T09:00:24Z</time>
      </trkpt>
      <trkpt lat="42.93949" lon="0.69369">
        <ele>863.88</ele>
        <time>2018-11-03T09:00:42Z</time>
      </trkpt>
      <trkpt lat="42.9397" lon="0.69357">
        <ele>867.25</ele>
        <time>2018-11-03T09:01:07Z</time>
      </trkpt>
      <trkpt lat="42.93985" lon="0.69348">
        <ele>870.13</ele>
        <time>2018-11-03T09:01:29Z</time>
      </trkpt>
      <trkpt lat="42.9399" lon="0.6936">
        <ele>873.98</ele>
        <time>2018-11-03T09:01:52Z</time>
      </trkpt>
      <trkpt lat="42.93973" lon="0.69369">
        <ele>876.86</ele>
        <time>2018-11-03T09:02:11Z</time>
      </trkpt>
      <trkpt lat="42.93966" lon="0.69379">
        <ele>879.26</ele>
        <time>2018-11-03T09:02:32Z</time>
      </trkpt>
      <trkpt lat="42.93959" lon="0.69398">
        <ele>881.67</ele>
        <time>2018-11-03T09:02:51Z</time>
      </trkpt>
      <trkpt lat="42.93943" lon="0.69408">
        <ele>884.07</ele>
        <time>2018-11-03T09:03:13Z</time>
      </trkpt>
      <trkpt lat="42.93926" lon="0.69412">
        <ele>885.99</ele>
        <time>2018-11-03T09:03:34Z</time>
      </trkpt>
      <trkpt lat="42.93912" lon="0.69423">
        <ele>888.88</ele>
        <time>2018-11-03T09:03:57Z</time>
      </trkpt>
      <trkpt lat="42.939" lon="0.69433">
        <ele>891.28</ele>
        <time>2018-11-03T09:04:17Z</time>
      </trkpt>
      <trkpt lat="42.93888" lon="0.6946">
        <ele>894.64</ele>
        <time>2018-11-03T09:04:45Z</time>
      </trkpt>
      <trkpt lat="42.93877" lon="0.69474">
        <ele>897.53</ele>
        <time>2018-11-03T09:05:15Z</time>
      </trkpt>
      <trkpt lat="42.93862" lon="0.69462">
        <ele>900.89</ele>
        <time>2018-11-03T09:05:37Z</time>
      </trkpt>
      <trkpt lat="42.93849" lon="0.69472">
        <ele>903.78</ele>
        <time>2018-11-03T09:05:58Z</time>
      </trkpt>
      <trkpt lat="42.9383" lon="0.69476">
        <ele>907.14</ele>
        <time>2018-11-03T09:06:18Z</time>
      </trkpt>
      <trkpt lat="42.93815" lon="0.69471">
        <ele>910.03</ele>
        <time>2018-11-03T09:06:38Z</time>
      </trkpt>
      <trkpt lat="42.938" lon="0.69469">
        <ele>911.95</ele>
        <time>2018-11-03T09:06:55Z</time>
      </trkpt>
      <trkpt lat="42.93783" lon="0.69462">
        <ele>914.83</ele>
        <time>2018-11-03T09:07:14Z</time>
      </trkpt>
      <trkpt lat="42.93763" lon="0.69469">
        <ele>918.68</ele>
        <time>2018-11-03T09:07:39Z</time>
      </trkpt>
      <trkpt lat="42.9375" lon="0.69473">
        <ele>920.6</ele>
        <time>2018-11-03T09:07:52Z</time>
      </trkpt>
      <trkpt lat="42.93742" lon="0.69487">
        <ele>923.48</ele>
        <time>2018-11-03T09:08:20Z</time>
      </trkpt>
      <trkpt lat="42.93727" lon="0.69492">
        <ele>925.89</ele>
        <time>2018-11-03T09:08:44Z</time>
      </trkpt>
      <trkpt lat="42.93747" lon="0.69494">
        <ele>929.25</ele>
        <time>2018-11-03T09:09:07Z</time>
      </trkpt>
      <trkpt lat="42.93772" lon="0.69497">
        <ele>932.62</ele>
        <time>2018-11-03T09:09:32Z</time>
      </trkpt>
      <trkpt lat="42.93783" lon="0.695">
        <ele>935.02</ele>
        <time>2018-11-03T09:09:48Z</time>
      </trkpt>
      <trkpt lat="42.93799" lon="0.69513">
        <ele>937.9</ele>
        <time>2018-11-03T09:10:11Z</time>
      </trkpt>
      <trkpt lat="42.93811" lon="0.69527">
        <ele>941.27</ele>
        <time>2018-11-03T09:10:42Z</time>
      </trkpt>
      <trkpt lat="42.93825" lon="0.6954">
        <ele>944.63</ele>
        <time>2018-11-03T09:11:03Z</time>
      </trkpt>
      <trkpt lat="42.93844" lon="0.6955">
        <ele>947.04</ele>
        <time>2018-11-03T09:11:26Z</time>
      </trkpt>
      <trkpt lat="42.93857" lon="0.69559">
        <ele>950.4</ele>
        <time>2018-11-03T09:11:44Z</time>
      </trkpt>
      <trkpt lat="42.93873" lon="0.69565">
        <ele>952.8</ele>
        <time>2018-11-03T09:12:02Z</time>
      </trkpt>
      <trkpt lat="42.93889" lon="0.6957">
        <ele>956.65</ele>
        <time>2018-11-03T09:12:24Z</time>
      </trkpt>
      <trkpt lat="42.93883" lon="0.69576">
        <ele>959.53</ele>
        <time>2018-11-03T09:12:43Z</time>
      </trkpt>
      <trkpt lat="42.93869" lon="0.69583">
        <ele>962.42</ele>
        <time>2018-11-03T09:13:00Z</time>
      </trkpt>
      <trkpt lat="42.93854" lon="0.69584">
        <ele>964.34</ele>
        <time>2018-11-03T09:13:19Z</time>
      </trkpt>
      <trkpt lat="42.93838" lon="0.69592">
        <ele>968.18</ele>
        <time>2018-11-03T09:13:38Z</time>
      </trkpt>
      <trkpt lat="42.93822" lon="0.69588">
        <ele>970.59</ele>
        <time>2018-11-03T09:14:00Z</time>
      </trkpt>
      <trkpt lat="42.93807" lon="0.69585">
        <ele>971.55</ele>
        <time>2018-11-03T09:14:16Z</time>
      </trkpt>
      <trkpt lat="42.9379" lon="0.69586">
        <ele>975.88</ele>
        <time>2018-11-03T09:14:41Z</time>
      </trkpt>
      <trkpt lat="42.93774" lon="0.69584">
        <ele>979.24</ele>
        <time>2018-11-03T09:15:05Z</time>
      </trkpt>
      <trkpt lat="42.93786" lon="0.69597">
        <ele>983.57</ele>
        <time>2018-11-03T09:18:17Z</time>
      </trkpt>
      <trkpt lat="42.93802" lon="0.69603">
        <ele>987.41</ele>
        <time>2018-11-03T09:18:41Z</time>
      </trkpt>
      <trkpt lat="42.93819" lon="0.69612">
        <ele>989.33</ele>
        <time>2018-11-03T09:19:00Z</time>
      </trkpt>
      <trkpt lat="42.93832" lon="0.69625">
        <ele>992.7</ele>
        <time>2018-11-03T09:19:20Z</time>
      </trkpt>
      <trkpt lat="42.93847" lon="0.69633">
        <ele>996.54</ele>
        <time>2018-11-03T09:19:44Z</time>
      </trkpt>
      <trkpt lat="42.93869" lon="0.69642">
        <ele>999.43</ele>
        <time>2018-11-03T09:20:07Z</time>
      </trkpt>
      <trkpt lat="42.93883" lon="0.69647">
        <ele>1002.31</ele>
        <time>2018-11-03T09:20:26Z</time>
      </trkpt>
      <trkpt lat="42.93901" lon="0.69651">
        <ele>1005.2</ele>
        <time>2018-11-03T09:20:46Z</time>
      </trkpt>
      <trkpt lat="42.93893" lon="0.69657">
        <ele>1009.04</ele>
        <time>2018-11-03T09:21:07Z</time>
      </trkpt>
      <trkpt lat="42.93879" lon="0.69662">
        <ele>1011.93</ele>
        <time>2018-11-03T09:21:29Z</time>
      </trkpt>
      <trkpt lat="42.93859" lon="0.69661">
        <ele>1014.81</ele>
        <time>2018-11-03T09:21:53Z</time>
      </trkpt>
      <trkpt lat="42.93843" lon="0.69663">
        <ele>1016.25</ele>
        <time>2018-11-03T09:22:07Z</time>
      </trkpt>
      <trkpt lat="42.93829" lon="0.69662">
        <ele>1019.62</ele>
        <time>2018-11-03T09:22:27Z</time>
      </trkpt>
      <trkpt lat="42.93816" lon="0.69663">
        <ele>1021.06</ele>
        <time>2018-11-03T09:22:41Z</time>
      </trkpt>
      <trkpt lat="42.93803" lon="0.69665">
        <ele>1022.98</ele>
        <time>2018-11-03T09:22:57Z</time>
      </trkpt>
      <trkpt lat="42.93794" lon="0.6967">
        <ele>1024.9</ele>
        <time>2018-11-03T09:23:10Z</time>
      </trkpt>
      <trkpt lat="42.93796" lon="0.69692">
        <ele>1026.83</ele>
        <time>2018-11-03T09:23:29Z</time>
      </trkpt>
      <trkpt lat="42.93808" lon="0.69707">
        <ele>1029.71</ele>
        <time>2018-11-03T09:23:48Z</time>
      </trkpt>
      <trkpt lat="42.93826" lon="0.69714">
        <ele>1032.11</ele>
        <time>2018-11-03T09:24:11Z</time>
      </trkpt>
      <trkpt lat="42.93839" lon="0.6971">
        <ele>1035</ele>
        <time>2018-11-03T09:24:31Z</time>
      </trkpt>
      <trkpt lat="42.93855" lon="0.69709">
        <ele>1040.28</ele>
        <time>2018-11-03T09:24:58Z</time>
      </trkpt>
      <trkpt lat="42.93872" lon="0.69715">
        <ele>1043.17</ele>
        <time>2018-11-03T09:25:19Z</time>
      </trkpt>
      <trkpt lat="42.93882" lon="0.69714">
        <ele>1046.05</ele>
        <time>2018-11-03T09:26:01Z</time>
      </trkpt>
      <trkpt lat="42.93891" lon="0.69722">
        <ele>1048.94</ele>
        <time>2018-11-03T09:26:19Z</time>
      </trkpt>
      <trkpt lat="42.93906" lon="0.69726">
        <ele>1052.78</ele>
        <time>2018-11-03T09:26:38Z</time>
      </trkpt>
      <trkpt lat="42.93919" lon="0.69727">
        <ele>1055.18</ele>
        <time>2018-11-03T09:26:59Z</time>
      </trkpt>
      <trkpt lat="42.93937" lon="0.69727">
        <ele>1059.03</ele>
        <time>2018-11-03T09:27:25Z</time>
      </trkpt>
      <trkpt lat="42.93951" lon="0.69725">
        <ele>1061.91</ele>
        <time>2018-11-03T09:27:45Z</time>
      </trkpt>
      <trkpt lat="42.93965" lon="0.69723">
        <ele>1064.8</ele>
        <time>2018-11-03T09:28:03Z</time>
      </trkpt>
      <trkpt lat="42.93977" lon="0.69725">
        <ele>1067.68</ele>
        <time>2018-11-03T09:28:22Z</time>
      </trkpt>
      <trkpt lat="42.93964" lon="0.69732">
        <ele>1070.57</ele>
        <time>2018-11-03T09:28:39Z</time>
      </trkpt>
      <trkpt lat="42.93953" lon="0.6974">
        <ele>1072.49</ele>
        <time>2018-11-03T09:28:55Z</time>
      </trkpt>
      <trkpt lat="42.93943" lon="0.69749">
        <ele>1073.93</ele>
        <time>2018-11-03T09:29:09Z</time>
      </trkpt>
      <trkpt lat="42.9393" lon="0.69757">
        <ele>1076.33</ele>
        <time>2018-11-03T09:29:26Z</time>
      </trkpt>
      <trkpt lat="42.9394" lon="0.69766">
        <ele>1079.7</ele>
        <time>2018-11-03T09:29:51Z</time>
      </trkpt>
      <trkpt lat="42.93955" lon="0.69782">
        <ele>1083.06</ele>
        <time>2018-11-03T09:30:12Z</time>
      </trkpt>
      <trkpt lat="42.93972" lon="0.69793">
        <ele>1085.47</ele>
        <time>2018-11-03T09:30:30Z</time>
      </trkpt>
      <trkpt lat="42.93986" lon="0.69794">
        <ele>1088.83</ele>
        <time>2018-11-03T09:30:51Z</time>
      </trkpt>
      <trkpt lat="42.93994" lon="0.69784">
        <ele>1093.64</ele>
        <time>2018-11-03T09:31:23Z</time>
      </trkpt>
      <trkpt lat="42.93981" lon="0.69772">
        <ele>1096.52</ele>
        <time>2018-11-03T09:31:45Z</time>
      </trkpt>
      <trkpt lat="42.93993" lon="0.69771">
        <ele>1098.44</ele>
        <time>2018-11-03T09:32:03Z</time>
      </trkpt>
      <trkpt lat="42.94013" lon="0.69765">
        <ele>1100.37</ele>
        <time>2018-11-03T09:32:32Z</time>
      </trkpt>
      <trkpt lat="42.94025" lon="0.69765">
        <ele>1102.29</ele>
        <time>2018-11-03T09:32:45Z</time>
      </trkpt>
      <trkpt lat="42.94038" lon="0.69768">
        <ele>1104.21</ele>
        <time>2018-11-03T09:33:03Z</time>
      </trkpt>
      <trkpt lat="42.94062" lon="0.69769">
        <ele>1107.58</ele>
        <time>2018-11-03T09:33:29Z</time>
      </trkpt>
      <trkpt lat="42.94084" lon="0.69774">
        <ele>1111.42</ele>
        <time>2018-11-03T09:33:59Z</time>
      </trkpt>
      <trkpt lat="42.94102" lon="0.69771">
        <ele>1114.79</ele>
        <time>2018-11-03T09:34:19Z</time>
      </trkpt>
      <trkpt lat="42.94124" lon="0.69769">
        <ele>1119.11</ele>
        <time>2018-11-03T09:34:48Z</time>
      </trkpt>
      <trkpt lat="42.94143" lon="0.69767">
        <ele>1122</ele>
        <time>2018-11-03T09:35:12Z</time>
      </trkpt>
      <trkpt lat="42.9414" lon="0.69753">
        <ele>1124.88</ele>
        <time>2018-11-03T09:35:32Z</time>
      </trkpt>
      <trkpt lat="42.94124" lon="0.69745">
        <ele>1127.76</ele>
        <time>2018-11-03T09:35:53Z</time>
      </trkpt>
      <trkpt lat="42.94131" lon="0.69743">
        <ele>1130.65</ele>
        <time>2018-11-03T09:36:19Z</time>
      </trkpt>
      <trkpt lat="42.94149" lon="0.69741">
        <ele>1133.05</ele>
        <time>2018-11-03T09:36:38Z</time>
      </trkpt>
      <trkpt lat="42.94159" lon="0.69751">
        <ele>1135.45</ele>
        <time>2018-11-03T09:36:59Z</time>
      </trkpt>
      <trkpt lat="42.94166" lon="0.69766">
        <ele>1137.38</ele>
        <time>2018-11-03T09:37:14Z</time>
      </trkpt>
      <trkpt lat="42.94174" lon="0.69775">
        <ele>1138.82</ele>
        <time>2018-11-03T09:37:29Z</time>
      </trkpt>
      <trkpt lat="42.94188" lon="0.69781">
        <ele>1141.7</ele>
        <time>2018-11-03T09:37:47Z</time>
      </trkpt>
      <trkpt lat="42.94204" lon="0.69789">
        <ele>1145.55</ele>
        <time>2018-11-03T09:38:10Z</time>
      </trkpt>
      <trkpt lat="42.9422" lon="0.69792">
        <ele>1149.39</ele>
        <time>2018-11-03T09:38:33Z</time>
      </trkpt>
      <trkpt lat="42.94209" lon="0.69767">
        <ele>1152.28</ele>
        <time>2018-11-03T09:38:58Z</time>
      </trkpt>
      <trkpt lat="42.94197" lon="0.69757">
        <ele>1155.16</ele>
        <time>2018-11-03T09:39:18Z</time>
      </trkpt>
      <trkpt lat="42.94209" lon="0.69759">
        <ele>1157.56</ele>
        <time>2018-11-03T09:39:37Z</time>
      </trkpt>
      <trkpt lat="42.94215" lon="0.69765">
        <ele>1159.97</ele>
        <time>2018-11-03T09:39:54Z</time>
      </trkpt>
      <trkpt lat="42.94208" lon="0.69745">
        <ele>1161.89</ele>
        <time>2018-11-03T09:40:10Z</time>
      </trkpt>
      <trkpt lat="42.94215" lon="0.6975">
        <ele>1164.29</ele>
        <time>2018-11-03T09:40:27Z</time>
      </trkpt>
      <trkpt lat="42.94225" lon="0.69763">
        <ele>1166.7</ele>
        <time>2018-11-03T09:40:43Z</time>
      </trkpt>
      <trkpt lat="42.94237" lon="0.69775">
        <ele>1171.02</ele>
        <time>2018-11-03T09:41:04Z</time>
      </trkpt>
      <trkpt lat="42.94246" lon="0.69774">
        <ele>1173.91</ele>
        <time>2018-11-03T09:41:22Z</time>
      </trkpt>
      <trkpt lat="42.94239" lon="0.69758">
        <ele>1175.35</ele>
        <time>2018-11-03T09:41:39Z</time>
      </trkpt>
      <trkpt lat="42.94231" lon="0.69748">
        <ele>1178.71</ele>
        <time>2018-11-03T09:42:00Z</time>
      </trkpt>
      <trkpt lat="42.94243" lon="0.69754">
        <ele>1180.64</ele>
        <time>2018-11-03T09:42:20Z</time>
      </trkpt>
      <trkpt lat="42.94229" lon="0.69739">
        <ele>1182.08</ele>
        <time>2018-11-03T09:42:45Z</time>
      </trkpt>
      <trkpt lat="42.94218" lon="0.69728">
        <ele>1185.44</ele>
        <time>2018-11-03T09:43:06Z</time>
      </trkpt>
      <trkpt lat="42.94213" lon="0.69713">
        <ele>1187.85</ele>
        <time>2018-11-03T09:43:22Z</time>
      </trkpt>
      <trkpt lat="42.94216" lon="0.69704">
        <ele>1189.77</ele>
        <time>2018-11-03T09:45:18Z</time>
      </trkpt>
      <trkpt lat="42.94232" lon="0.69691">
        <ele>1190.73</ele>
        <time>2018-11-03T09:45:34Z</time>
      </trkpt>
      <trkpt lat="42.94248" lon="0.69668">
        <ele>1194.09</ele>
        <time>2018-11-03T09:45:59Z</time>
      </trkpt>
      <trkpt lat="42.94257" lon="0.69644">
        <ele>1197.46</ele>
        <time>2018-11-03T09:46:19Z</time>
      </trkpt>
      <trkpt lat="42.94255" lon="0.69622">
        <ele>1200.34</ele>
        <time>2018-11-03T09:46:38Z</time>
      </trkpt>
      <trkpt lat="42.94262" lon="0.69633">
        <ele>1202.75</ele>
        <time>2018-11-03T09:46:57Z</time>
      </trkpt>
      <trkpt lat="42.94265" lon="0.69658">
        <ele>1205.15</ele>
        <time>2018-11-03T09:47:19Z</time>
      </trkpt>
      <trkpt lat="42.94262" lon="0.69688">
        <ele>1209</ele>
        <time>2018-11-03T09:47:40Z</time>
      </trkpt>
      <trkpt lat="42.94273" lon="0.69671">
        <ele>1211.4</ele>
        <time>2018-11-03T09:47:58Z</time>
      </trkpt>
      <trkpt lat="42.94283" lon="0.69659">
        <ele>1215.24</ele>
        <time>2018-11-03T09:48:21Z</time>
      </trkpt>
      <trkpt lat="42.94281" lon="0.69681">
        <ele>1218.13</ele>
        <time>2018-11-03T09:48:41Z</time>
      </trkpt>
      <trkpt lat="42.94274" lon="0.69705">
        <ele>1220.53</ele>
        <time>2018-11-03T09:49:01Z</time>
      </trkpt>
      <trkpt lat="42.94284" lon="0.69721">
        <ele>1222.45</ele>
        <time>2018-11-03T09:49:23Z</time>
      </trkpt>
      <trkpt lat="42.94285" lon="0.69701">
        <ele>1225.82</ele>
        <time>2018-11-03T09:49:43Z</time>
      </trkpt>
      <trkpt lat="42.94296" lon="0.69678">
        <ele>1228.22</ele>
        <time>2018-11-03T09:50:10Z</time>
      </trkpt>
      <trkpt lat="42.94303" lon="0.69656">
        <ele>1230.62</ele>
        <time>2018-11-03T09:50:28Z</time>
      </trkpt>
      <trkpt lat="42.94308" lon="0.69637">
        <ele>1233.03</ele>
        <time>2018-11-03T09:50:47Z</time>
      </trkpt>
      <trkpt lat="42.94323" lon="0.69618">
        <ele>1235.43</ele>
        <time>2018-11-03T09:51:13Z</time>
      </trkpt>
      <trkpt lat="42.94336" lon="0.69602">
        <ele>1238.8</ele>
        <time>2018-11-03T09:51:38Z</time>
      </trkpt>
      <trkpt lat="42.94348" lon="0.69587">
        <ele>1240.72</ele>
        <time>2018-11-03T09:51:56Z</time>
      </trkpt>
      <trkpt lat="42.94354" lon="0.69571">
        <ele>1242.16</ele>
        <time>2018-11-03T09:52:12Z</time>
      </trkpt>
      <trkpt lat="42.94363" lon="0.69559">
        <ele>1244.08</ele>
        <time>2018-11-03T09:52:29Z</time>
      </trkpt>
      <trkpt lat="42.94374" lon="0.69544">
        <ele>1245.53</ele>
        <time>2018-11-03T09:52:48Z</time>
      </trkpt>
      <trkpt lat="42.94391" lon="0.69525">
        <ele>1250.81</ele>
        <time>2018-11-03T09:53:19Z</time>
      </trkpt>
      <trkpt lat="42.94405" lon="0.69492">
        <ele>1255.62</ele>
        <time>2018-11-03T09:53:54Z</time>
      </trkpt>
      <trkpt lat="42.94412" lon="0.69476">
        <ele>1259.46</ele>
        <time>2018-11-03T09:54:19Z</time>
      </trkpt>
      <trkpt lat="42.94411" lon="0.69495">
        <ele>1260.91</ele>
        <time>2018-11-03T09:54:34Z</time>
      </trkpt>
      <trkpt lat="42.94412" lon="0.695">
        <ele>1264.75</ele>
        <time>2018-11-03T09:54:58Z</time>
      </trkpt>
      <trkpt lat="42.94417" lon="0.69475">
        <ele>1267.64</ele>
        <time>2018-11-03T09:55:23Z</time>
      </trkpt>
      <trkpt lat="42.94421" lon="0.69454">
        <ele>1271</ele>
        <time>2018-11-03T09:55:46Z</time>
      </trkpt>
      <trkpt lat="42.94412" lon="0.69436">
        <ele>1273.4</ele>
        <time>2018-11-03T09:56:05Z</time>
      </trkpt>
      <trkpt lat="42.94414" lon="0.69421">
        <ele>1275.33</ele>
        <time>2018-11-03T09:56:21Z</time>
      </trkpt>
      <trkpt lat="42.9442" lon="0.69434">
        <ele>1278.21</ele>
        <time>2018-11-03T09:56:41Z</time>
      </trkpt>
      <trkpt lat="42.94425" lon="0.69408">
        <ele>1280.61</ele>
        <time>2018-11-03T09:57:02Z</time>
      </trkpt>
      <trkpt lat="42.94433" lon="0.6939">
        <ele>1284.46</ele>
        <time>2018-11-03T09:57:24Z</time>
      </trkpt>
      <trkpt lat="42.94449" lon="0.69364">
        <ele>1289.27</ele>
        <time>2018-11-03T09:57:57Z</time>
      </trkpt>
      <trkpt lat="42.94446" lon="0.69369">
        <ele>1292.63</ele>
        <time>2018-11-03T09:58:21Z</time>
      </trkpt>
      <trkpt lat="42.94442" lon="0.69391">
        <ele>1294.55</ele>
        <time>2018-11-03T09:58:39Z</time>
      </trkpt>
      <trkpt lat="42.94454" lon="0.69378">
        <ele>1299.36</ele>
        <time>2018-11-03T09:59:08Z</time>
      </trkpt>
      <trkpt lat="42.94458" lon="0.69358">
        <ele>1304.17</ele>
        <time>2018-11-03T09:59:36Z</time>
      </trkpt>
      <trkpt lat="42.94463" lon="0.69377">
        <ele>1307.53</ele>
        <time>2018-11-03T09:59:58Z</time>
      </trkpt>
      <trkpt lat="42.9447" lon="0.6935">
        <ele>1310.9</ele>
        <time>2018-11-03T10:00:19Z</time>
      </trkpt>
      <trkpt lat="42.94474" lon="0.6936">
        <ele>1314.26</ele>
        <time>2018-11-03T10:00:39Z</time>
      </trkpt>
      <trkpt lat="42.94479" lon="0.69374">
        <ele>1317.14</ele>
        <time>2018-11-03T10:00:57Z</time>
      </trkpt>
      <trkpt lat="42.94482" lon="0.69345">
        <ele>1320.51</ele>
        <time>2018-11-03T10:01:29Z</time>
      </trkpt>
      <trkpt lat="42.94479" lon="0.69336">
        <ele>1323.39</ele>
        <time>2018-11-03T10:01:51Z</time>
      </trkpt>
      <trkpt lat="42.94487" lon="0.69359">
        <ele>1326.76</ele>
        <time>2018-11-03T10:02:13Z</time>
      </trkpt>
      <trkpt lat="42.94492" lon="0.69346">
        <ele>1329.16</ele>
        <time>2018-11-03T10:02:33Z</time>
      </trkpt>
      <trkpt lat="42.9449" lon="0.69322">
        <ele>1332.52</ele>
        <time>2018-11-03T10:03:08Z</time>
      </trkpt>
      <trkpt lat="42.9449" lon="0.69293">
        <ele>1335.89</ele>
        <time>2018-11-03T10:03:32Z</time>
      </trkpt>
      <trkpt lat="42.94487" lon="0.69297">
        <ele>1339.25</ele>
        <time>2018-11-03T10:04:02Z</time>
      </trkpt>
      <trkpt lat="42.94495" lon="0.69323">
        <ele>1342.14</ele>
        <time>2018-11-03T10:05:02Z</time>
      </trkpt>
      <trkpt lat="42.94502" lon="0.69335">
        <ele>1347.91</ele>
        <time>2018-11-03T10:05:32Z</time>
      </trkpt>
      <trkpt lat="42.94499" lon="0.69313">
        <ele>1349.83</ele>
        <time>2018-11-03T10:05:51Z</time>
      </trkpt>
      <trkpt lat="42.94494" lon="0.69281">
        <ele>1353.67</ele>
        <time>2018-11-03T10:06:16Z</time>
      </trkpt>
      <trkpt lat="42.94494" lon="0.69257">
        <ele>1355.6</ele>
        <time>2018-11-03T10:06:35Z</time>
      </trkpt>
      <trkpt lat="42.94496" lon="0.69237">
        <ele>1358</ele>
        <time>2018-11-03T10:06:53Z</time>
      </trkpt>
      <trkpt lat="42.94499" lon="0.69243">
        <ele>1362.33</ele>
        <time>2018-11-03T10:07:15Z</time>
      </trkpt>
      <trkpt lat="42.94507" lon="0.69262">
        <ele>1366.17</ele>
        <time>2018-11-03T10:07:37Z</time>
      </trkpt>
      <trkpt lat="42.94513" lon="0.69253">
        <ele>1369.54</ele>
        <time>2018-11-03T10:08:06Z</time>
      </trkpt>
      <trkpt lat="42.94513" lon="0.69221">
        <ele>1373.38</ele>
        <time>2018-11-03T10:08:31Z</time>
      </trkpt>
      <trkpt lat="42.94515" lon="0.69201">
        <ele>1375.78</ele>
        <time>2018-11-03T10:08:50Z</time>
      </trkpt>
      <trkpt lat="42.94518" lon="0.69214">
        <ele>1380.11</ele>
        <time>2018-11-03T10:09:17Z</time>
      </trkpt>
      <trkpt lat="42.94526" lon="0.69228">
        <ele>1383.96</ele>
        <time>2018-11-03T10:09:39Z</time>
      </trkpt>
      <trkpt lat="42.94534" lon="0.69238">
        <ele>1387.8</ele>
        <time>2018-11-03T10:10:10Z</time>
      </trkpt>
      <trkpt lat="42.94536" lon="0.69209">
        <ele>1391.65</ele>
        <time>2018-11-03T10:10:35Z</time>
      </trkpt>
      <trkpt lat="42.94535" lon="0.69188">
        <ele>1394.05</ele>
        <time>2018-11-03T10:10:56Z</time>
      </trkpt>
      <trkpt lat="42.94527" lon="0.69167">
        <ele>1396.45</ele>
        <time>2018-11-03T10:11:18Z</time>
      </trkpt>
      <trkpt lat="42.94516" lon="0.69156">
        <ele>1401.26</ele>
        <time>2018-11-03T10:11:42Z</time>
      </trkpt>
      <trkpt lat="42.94519" lon="0.69158">
        <ele>1406.55</ele>
        <time>2018-11-03T10:12:11Z</time>
      </trkpt>
      <trkpt lat="42.94534" lon="0.69164">
        <ele>1408.95</ele>
        <time>2018-11-03T10:12:38Z</time>
      </trkpt>
      <trkpt lat="42.94543" lon="0.69175">
        <ele>1413.28</ele>
        <time>2018-11-03T10:13:02Z</time>
      </trkpt>
      <trkpt lat="42.9455" lon="0.69178">
        <ele>1417.12</ele>
        <time>2018-11-03T10:13:39Z</time>
      </trkpt>
      <trkpt lat="42.94547" lon="0.69163">
        <ele>1419.52</ele>
        <time>2018-11-03T10:13:57Z</time>
      </trkpt>
      <trkpt lat="42.94541" lon="0.69149">
        <ele>1423.85</ele>
        <time>2018-11-03T10:14:24Z</time>
      </trkpt>
      <trkpt lat="42.94537" lon="0.69133">
        <ele>1427.21</ele>
        <time>2018-11-03T10:14:56Z</time>
      </trkpt>
      <trkpt lat="42.94546" lon="0.69141">
        <ele>1430.58</ele>
        <time>2018-11-03T10:15:32Z</time>
      </trkpt>
      <trkpt lat="42.94539" lon="0.69126">
        <ele>1435.87</ele>
        <time>2018-11-03T10:15:58Z</time>
      </trkpt>
      <trkpt lat="42.94533" lon="0.69112">
        <ele>1441.15</ele>
        <time>2018-11-03T10:16:30Z</time>
      </trkpt>
      <trkpt lat="42.94543" lon="0.69124">
        <ele>1444.52</ele>
        <time>2018-11-03T10:16:50Z</time>
      </trkpt>
      <trkpt lat="42.9455" lon="0.6912">
        <ele>1449.32</ele>
        <time>2018-11-03T10:17:20Z</time>
      </trkpt>
      <trkpt lat="42.94543" lon="0.6911">
        <ele>1451.73</ele>
        <time>2018-11-03T10:17:35Z</time>
      </trkpt>
      <trkpt lat="42.94554" lon="0.69112">
        <ele>1455.57</ele>
        <time>2018-11-03T10:18:05Z</time>
      </trkpt>
      <trkpt lat="42.9456" lon="0.69122">
        <ele>1459.42</ele>
        <time>2018-11-03T10:18:26Z</time>
      </trkpt>
      <trkpt lat="42.9456" lon="0.6911">
        <ele>1462.78</ele>
        <time>2018-11-03T10:19:30Z</time>
      </trkpt>
      <trkpt lat="42.9455" lon="0.69091">
        <ele>1465.67</ele>
        <time>2018-11-03T10:19:51Z</time>
      </trkpt>
      <trkpt lat="42.94539" lon="0.69069">
        <ele>1469.51</ele>
        <time>2018-11-03T10:20:20Z</time>
      </trkpt>
      <trkpt lat="42.94532" lon="0.69046">
        <ele>1473.84</ele>
        <time>2018-11-03T10:20:55Z</time>
      </trkpt>
      <trkpt lat="42.9452" lon="0.69029">
        <ele>1478.16</ele>
        <time>2018-11-03T10:21:29Z</time>
      </trkpt>
      <trkpt lat="42.94522" lon="0.69004">
        <ele>1485.37</ele>
        <time>2018-11-03T10:22:02Z</time>
      </trkpt>
      <trkpt lat="42.94524" lon="0.68993">
        <ele>1487.78</ele>
        <time>2018-11-03T10:22:37Z</time>
      </trkpt>
      <trkpt lat="42.9452" lon="0.69009">
        <ele>1485.85</ele>
        <time>2018-11-03T10:30:57Z</time>
      </trkpt>
      <trkpt lat="42.94521" lon="0.69023">
        <ele>1479.61</ele>
        <time>2018-11-03T10:31:29Z</time>
      </trkpt>
      <trkpt lat="42.94529" lon="0.69042">
        <ele>1474.32</ele>
        <time>2018-11-03T10:31:58Z</time>
      </trkpt>
      <trkpt lat="42.94534" lon="0.69063">
        <ele>1470.47</ele>
        <time>2018-11-03T10:32:20Z</time>
      </trkpt>
      <trkpt lat="42.94545" lon="0.69079">
        <ele>1466.15</ele>
        <time>2018-11-03T10:32:45Z</time>
      </trkpt>
      <trkpt lat="42.94554" lon="0.69095">
        <ele>1462.78</ele>
        <time>2018-11-03T10:33:04Z</time>
      </trkpt>
      <trkpt lat="42.94562" lon="0.69101">
        <ele>1460.86</ele>
        <time>2018-11-03T10:33:21Z</time>
      </trkpt>
      <trkpt lat="42.94572" lon="0.69102">
        <ele>1456.53</ele>
        <time>2018-11-03T10:33:49Z</time>
      </trkpt>
      <trkpt lat="42.94586" lon="0.69114">
        <ele>1454.13</ele>
        <time>2018-11-03T10:34:08Z</time>
      </trkpt>
      <trkpt lat="42.94598" lon="0.69131">
        <ele>1451.73</ele>
        <time>2018-11-03T10:34:30Z</time>
      </trkpt>
      <trkpt lat="42.94618" lon="0.69151">
        <ele>1453.17</ele>
        <time>2018-11-03T10:34:54Z</time>
      </trkpt>
      <trkpt lat="42.94623" lon="0.69168">
        <ele>1458.46</ele>
        <time>2018-11-03T10:35:28Z</time>
      </trkpt>
      <trkpt lat="42.94626" lon="0.69182">
        <ele>1461.82</ele>
        <time>2018-11-03T10:35:53Z</time>
      </trkpt>
      <trkpt lat="42.94638" lon="0.69205">
        <ele>1458.94</ele>
        <time>2018-11-03T10:36:23Z</time>
      </trkpt>
      <trkpt lat="42.94646" lon="0.69232">
        <ele>1455.57</ele>
        <time>2018-11-03T10:37:13Z</time>
      </trkpt>
      <trkpt lat="42.94659" lon="0.69261">
        <ele>1457.02</ele>
        <time>2018-11-03T10:38:09Z</time>
      </trkpt>
      <trkpt lat="42.94666" lon="0.69284">
        <ele>1461.34</ele>
        <time>2018-11-03T10:38:45Z</time>
      </trkpt>
      <trkpt lat="42.94668" lon="0.69312">
        <ele>1467.11</ele>
        <time>2018-11-03T10:39:30Z</time>
      </trkpt>
      <trkpt lat="42.94686" lon="0.69322">
        <ele>1467.11</ele>
        <time>2018-11-03T10:40:44Z</time>
      </trkpt>
      <trkpt lat="42.94693" lon="0.69324">
        <ele>1469.51</ele>
        <time>2018-11-03T10:41:02Z</time>
      </trkpt>
      <trkpt lat="42.94704" lon="0.69328">
        <ele>1471.44</ele>
        <time>2018-11-03T10:41:17Z</time>
      </trkpt>
      <trkpt lat="42.94716" lon="0.69335">
        <ele>1473.36</ele>
        <time>2018-11-03T10:41:34Z</time>
      </trkpt>
      <trkpt lat="42.94735" lon="0.69344">
        <ele>1475.28</ele>
        <time>2018-11-03T10:41:54Z</time>
      </trkpt>
      <trkpt lat="42.94748" lon="0.69342">
        <ele>1475.76</ele>
        <time>2018-11-03T10:42:09Z</time>
      </trkpt>
      <trkpt lat="42.9476" lon="0.69344">
        <ele>1477.2</ele>
        <time>2018-11-03T10:42:23Z</time>
      </trkpt>
      <trkpt lat="42.9477" lon="0.69343">
        <ele>1476.72</ele>
        <time>2018-11-03T10:42:32Z</time>
      </trkpt>
      <trkpt lat="42.94778" lon="0.69339">
        <ele>1477.2</ele>
        <time>2018-11-03T10:42:43Z</time>
      </trkpt>
      <trkpt lat="42.94788" lon="0.69342">
        <ele>1481.05</ele>
        <time>2018-11-03T10:43:12Z</time>
      </trkpt>
      <trkpt lat="42.94799" lon="0.69345">
        <ele>1483.45</ele>
        <time>2018-11-03T10:43:30Z</time>
      </trkpt>
      <trkpt lat="42.94809" lon="0.69346">
        <ele>1485.85</ele>
        <time>2018-11-03T10:43:48Z</time>
      </trkpt>
      <trkpt lat="42.94821" lon="0.69346">
        <ele>1489.22</ele>
        <time>2018-11-03T10:44:12Z</time>
      </trkpt>
      <trkpt lat="42.94834" lon="0.69346">
        <ele>1490.66</ele>
        <time>2018-11-03T10:44:30Z</time>
      </trkpt>
      <trkpt lat="42.94844" lon="0.69347">
        <ele>1489.22</ele>
        <time>2018-11-03T10:44:44Z</time>
      </trkpt>
      <trkpt lat="42.94859" lon="0.69345">
        <ele>1489.7</ele>
        <time>2018-11-03T10:45:01Z</time>
      </trkpt>
      <trkpt lat="42.94875" lon="0.6934">
        <ele>1493.06</ele>
        <time>2018-11-03T10:45:23Z</time>
      </trkpt>
      <trkpt lat="42.94889" lon="0.69346">
        <ele>1499.31</ele>
        <time>2018-11-03T10:45:57Z</time>
      </trkpt>
      <trkpt lat="42.94899" lon="0.69345">
        <ele>1503.64</ele>
        <time>2018-11-03T10:46:23Z</time>
      </trkpt>
      <trkpt lat="42.94899" lon="0.69353">
        <ele>1507.97</ele>
        <time>2018-11-03T10:46:55Z</time>
      </trkpt>
      <trkpt lat="42.949" lon="0.6936">
        <ele>1513.73</ele>
        <time>2018-11-03T10:47:26Z</time>
      </trkpt>
      <trkpt lat="42.94909" lon="0.69362">
        <ele>1519.02</ele>
        <time>2018-11-03T10:48:01Z</time>
      </trkpt>
      <trkpt lat="42.9492" lon="0.69359">
        <ele>1522.87</ele>
        <time>2018-11-03T10:48:27Z</time>
      </trkpt>
      <trkpt lat="42.9493" lon="0.69356">
        <ele>1524.31</ele>
        <time>2018-11-03T10:48:49Z</time>
      </trkpt>
      <trkpt lat="42.9494" lon="0.69353">
        <ele>1524.79</ele>
        <time>2018-11-03T10:49:02Z</time>
      </trkpt>
      <trkpt lat="42.94952" lon="0.69353">
        <ele>1527.67</ele>
        <time>2018-11-03T10:49:25Z</time>
      </trkpt>
      <trkpt lat="42.94963" lon="0.69354">
        <ele>1532.48</ele>
        <time>2018-11-03T10:49:53Z</time>
      </trkpt>
      <trkpt lat="42.94971" lon="0.69346">
        <ele>1532.48</ele>
        <time>2018-11-03T10:50:09Z</time>
      </trkpt>
      <trkpt lat="42.94984" lon="0.69347">
        <ele>1535.36</ele>
        <time>2018-11-03T10:50:31Z</time>
      </trkpt>
      <trkpt lat="42.94996" lon="0.69349">
        <ele>1538.73</ele>
        <time>2018-11-03T10:50:52Z</time>
      </trkpt>
      <trkpt lat="42.95005" lon="0.69343">
        <ele>1541.61</ele>
        <time>2018-11-03T10:51:13Z</time>
      </trkpt>
      <trkpt lat="42.95016" lon="0.69341">
        <ele>1544.98</ele>
        <time>2018-11-03T10:51:35Z</time>
      </trkpt>
      <trkpt lat="42.95024" lon="0.69332">
        <ele>1547.86</ele>
        <time>2018-11-03T10:51:54Z</time>
      </trkpt>
      <trkpt lat="42.95029" lon="0.6932">
        <ele>1548.82</ele>
        <time>2018-11-03T10:52:09Z</time>
      </trkpt>
      <trkpt lat="42.95033" lon="0.69309">
        <ele>1551.22</ele>
        <time>2018-11-03T10:52:28Z</time>
      </trkpt>
      <trkpt lat="42.9504" lon="0.69299">
        <ele>1556.03</ele>
        <time>2018-11-03T10:52:54Z</time>
      </trkpt>
      <trkpt lat="42.95041" lon="0.69285">
        <ele>1557.47</ele>
        <time>2018-11-03T10:53:14Z</time>
      </trkpt>
      <trkpt lat="42.95044" lon="0.69275">
        <ele>1561.8</ele>
        <time>2018-11-03T10:53:35Z</time>
      </trkpt>
      <trkpt lat="42.95048" lon="0.69267">
        <ele>1564.68</ele>
        <time>2018-11-03T10:54:20Z</time>
      </trkpt>
      <trkpt lat="42.95054" lon="0.69281">
        <ele>1567.09</ele>
        <time>2018-11-03T10:54:36Z</time>
      </trkpt>
      <trkpt lat="42.95056" lon="0.69292">
        <ele>1570.93</ele>
        <time>2018-11-03T10:54:59Z</time>
      </trkpt>
      <trkpt lat="42.95068" lon="0.69303">
        <ele>1575.74</ele>
        <time>2018-11-03T10:55:58Z</time>
      </trkpt>
      <trkpt lat="42.95076" lon="0.69304">
        <ele>1581.03</ele>
        <time>2018-11-03T10:56:33Z</time>
      </trkpt>
      <trkpt lat="42.95086" lon="0.69304">
        <ele>1583.43</ele>
        <time>2018-11-03T10:56:52Z</time>
      </trkpt>
      <trkpt lat="42.95098" lon="0.69305">
        <ele>1588.24</ele>
        <time>2018-11-03T10:57:26Z</time>
      </trkpt>
      <trkpt lat="42.95109" lon="0.69308">
        <ele>1593.04</ele>
        <time>2018-11-03T10:58:04Z</time>
      </trkpt>
      <trkpt lat="42.95118" lon="0.69307">
        <ele>1597.85</ele>
        <time>2018-11-03T10:58:31Z</time>
      </trkpt>
      <trkpt lat="42.95126" lon="0.69305">
        <ele>1602.17</ele>
        <time>2018-11-03T10:58:57Z</time>
      </trkpt>
      <trkpt lat="42.95132" lon="0.69308">
        <ele>1606.98</ele>
        <time>2018-11-03T10:59:44Z</time>
      </trkpt>
      <trkpt lat="42.95126" lon="0.69317">
        <ele>1608.42</ele>
        <time>2018-11-03T11:00:05Z</time>
      </trkpt>
      <trkpt lat="42.95123" lon="0.69331">
        <ele>1611.31</ele>
        <time>2018-11-03T11:00:21Z</time>
      </trkpt>
      <trkpt lat="42.95125" lon="0.69339">
        <ele>1614.19</ele>
        <time>2018-11-03T11:00:39Z</time>
      </trkpt>
      <trkpt lat="42.95135" lon="0.69332">
        <ele>1615.63</ele>
        <time>2018-11-03T11:00:54Z</time>
      </trkpt>
      <trkpt lat="42.95143" lon="0.69325">
        <ele>1617.07</ele>
        <time>2018-11-03T11:01:08Z</time>
      </trkpt>
      <trkpt lat="42.95149" lon="0.69314">
        <ele>1618.52</ele>
        <time>2018-11-03T11:01:21Z</time>
      </trkpt>
      <trkpt lat="42.95156" lon="0.69306">
        <ele>1620.44</ele>
        <time>2018-11-03T11:01:36Z</time>
      </trkpt>
      <trkpt lat="42.9516" lon="0.69315">
        <ele>1621.4</ele>
        <time>2018-11-03T11:02:14Z</time>
      </trkpt>
      <trkpt lat="42.95163" lon="0.69326">
        <ele>1618.04</ele>
        <time>2018-11-03T11:02:29Z</time>
      </trkpt>
      <trkpt lat="42.95168" lon="0.69336">
        <ele>1613.71</ele>
        <time>2018-11-03T11:02:45Z</time>
      </trkpt>
      <trkpt lat="42.95177" lon="0.69338">
        <ele>1609.38</ele>
        <time>2018-11-03T11:03:08Z</time>
      </trkpt>
      <trkpt lat="42.95188" lon="0.69341">
        <ele>1603.62</ele>
        <time>2018-11-03T11:03:29Z</time>
      </trkpt>
      <trkpt lat="42.95197" lon="0.6934">
        <ele>1599.29</ele>
        <time>2018-11-03T11:03:46Z</time>
      </trkpt>
      <trkpt lat="42.95206" lon="0.69336">
        <ele>1596.41</ele>
        <time>2018-11-03T11:04:07Z</time>
      </trkpt>
      <trkpt lat="42.95217" lon="0.69337">
        <ele>1593.04</ele>
        <time>2018-11-03T11:04:22Z</time>
      </trkpt>
      <trkpt lat="42.95226" lon="0.6934">
        <ele>1589.2</ele>
        <time>2018-11-03T11:04:38Z</time>
      </trkpt>
      <trkpt lat="42.95234" lon="0.69342">
        <ele>1584.87</ele>
        <time>2018-11-03T11:04:53Z</time>
      </trkpt>
      <trkpt lat="42.95244" lon="0.69344">
        <ele>1581.51</ele>
        <time>2018-11-03T11:05:08Z</time>
      </trkpt>
      <trkpt lat="42.95254" lon="0.69346">
        <ele>1578.62</ele>
        <time>2018-11-03T11:05:22Z</time>
      </trkpt>
      <trkpt lat="42.95264" lon="0.69346">
        <ele>1576.7</ele>
        <time>2018-11-03T11:05:35Z</time>
      </trkpt>
      <trkpt lat="42.95272" lon="0.6935">
        <ele>1574.3</ele>
        <time>2018-11-03T11:05:48Z</time>
      </trkpt>
      <trkpt lat="42.95282" lon="0.69351">
        <ele>1571.41</ele>
        <time>2018-11-03T11:06:06Z</time>
      </trkpt>
      <trkpt lat="42.95291" lon="0.69353">
        <ele>1568.53</ele>
        <time>2018-11-03T11:06:19Z</time>
      </trkpt>
      <trkpt lat="42.95301" lon="0.69355">
        <ele>1566.12</ele>
        <time>2018-11-03T11:06:33Z</time>
      </trkpt>
      <trkpt lat="42.95309" lon="0.69356">
        <ele>1564.2</ele>
        <time>2018-11-03T11:06:49Z</time>
      </trkpt>
      <trkpt lat="42.9532" lon="0.69359">
        <ele>1564.2</ele>
        <time>2018-11-03T11:07:00Z</time>
      </trkpt>
      <trkpt lat="42.95329" lon="0.69365">
        <ele>1564.68</ele>
        <time>2018-11-03T11:07:10Z</time>
      </trkpt>
      <trkpt lat="42.9534" lon="0.69368">
        <ele>1566.12</ele>
        <time>2018-11-03T11:07:22Z</time>
      </trkpt>
      <trkpt lat="42.95349" lon="0.69372">
        <ele>1566.61</ele>
        <time>2018-11-03T11:07:32Z</time>
      </trkpt>
      <trkpt lat="42.95359" lon="0.69372">
        <ele>1566.61</ele>
        <time>2018-11-03T11:07:42Z</time>
      </trkpt>
      <trkpt lat="42.95368" lon="0.69374">
        <ele>1566.12</ele>
        <time>2018-11-03T11:07:53Z</time>
      </trkpt>
      <trkpt lat="42.95376" lon="0.69376">
        <ele>1565.64</ele>
        <time>2018-11-03T11:08:03Z</time>
      </trkpt>
      <trkpt lat="42.95386" lon="0.69381">
        <ele>1565.16</ele>
        <time>2018-11-03T11:08:13Z</time>
      </trkpt>
      <trkpt lat="42.95395" lon="0.69379">
        <ele>1564.2</ele>
        <time>2018-11-03T11:08:23Z</time>
      </trkpt>
      <trkpt lat="42.95404" lon="0.69375">
        <ele>1562.76</ele>
        <time>2018-11-03T11:08:33Z</time>
      </trkpt>
      <trkpt lat="42.95414" lon="0.69372">
        <ele>1561.8</ele>
        <time>2018-11-03T11:08:43Z</time>
      </trkpt>
      <trkpt lat="42.95422" lon="0.6937">
        <ele>1560.84</ele>
        <time>2018-11-03T11:08:52Z</time>
      </trkpt>
      <trkpt lat="42.95431" lon="0.69365">
        <ele>1558.92</ele>
        <time>2018-11-03T11:09:03Z</time>
      </trkpt>
      <trkpt lat="42.9544" lon="0.69363">
        <ele>1557.95</ele>
        <time>2018-11-03T11:09:13Z</time>
      </trkpt>
      <trkpt lat="42.9545" lon="0.69356">
        <ele>1556.99</ele>
        <time>2018-11-03T11:09:23Z</time>
      </trkpt>
      <trkpt lat="42.95459" lon="0.69351">
        <ele>1555.07</ele>
        <time>2018-11-03T11:09:36Z</time>
      </trkpt>
      <trkpt lat="42.9547" lon="0.69352">
        <ele>1554.11</ele>
        <time>2018-11-03T11:09:47Z</time>
      </trkpt>
      <trkpt lat="42.95482" lon="0.6935">
        <ele>1553.63</ele>
        <time>2018-11-03T11:09:59Z</time>
      </trkpt>
      <trkpt lat="42.95491" lon="0.69352">
        <ele>1555.07</ele>
        <time>2018-11-03T11:10:11Z</time>
      </trkpt>
      <trkpt lat="42.95497" lon="0.69341">
        <ele>1554.59</ele>
        <time>2018-11-03T11:10:36Z</time>
      </trkpt>
      <trkpt lat="42.95488" lon="0.69338">
        <ele>1553.63</ele>
        <time>2018-11-03T11:10:54Z</time>
      </trkpt>
      <trkpt lat="42.95489" lon="0.69338">
        <ele>1554.11</ele>
        <time>2018-11-03T11:11:32Z</time>
      </trkpt>
      <trkpt lat="42.95492" lon="0.69344">
        <ele>1553.15</ele>
        <time>2018-11-03T11:12:15Z</time>
      </trkpt>
      <trkpt lat="42.95494" lon="0.69337">
        <ele>1554.11</ele>
        <time>2018-11-03T11:12:28Z</time>
      </trkpt>
      <trkpt lat="42.95489" lon="0.6935">
        <ele>1553.63</ele>
        <time>2018-11-03T11:13:15Z</time>
      </trkpt>
      <trkpt lat="42.95487" lon="0.69343">
        <ele>1553.63</ele>
        <time>2018-11-03T11:13:40Z</time>
      </trkpt>
      <trkpt lat="42.9549" lon="0.69344">
        <ele>1553.63</ele>
        <time>2018-11-03T11:14:12Z</time>
      </trkpt>
      <trkpt lat="42.95495" lon="0.69334">
        <ele>1553.63</ele>
        <time>2018-11-03T11:14:20Z</time>
      </trkpt>
      <trkpt lat="42.95488" lon="0.69325">
        <ele>1553.63</ele>
        <time>2018-11-03T11:14:30Z</time>
      </trkpt>
      <trkpt lat="42.95483" lon="0.69339">
        <ele>1552.67</ele>
        <time>2018-11-03T11:15:07Z</time>
      </trkpt>
      <trkpt lat="42.95483" lon="0.69346">
        <ele>1553.63</ele>
        <time>2018-11-03T11:15:22Z</time>
      </trkpt>
      <trkpt lat="42.95489" lon="0.69348">
        <ele>1553.15</ele>
        <time>2018-11-03T11:15:53Z</time>
      </trkpt>
      <trkpt lat="42.95491" lon="0.69345">
        <ele>1553.15</ele>
        <time>2018-11-03T11:16:42Z</time>
      </trkpt>
      <trkpt lat="42.95486" lon="0.69338">
        <ele>1553.15</ele>
        <time>2018-11-03T11:17:32Z</time>
      </trkpt>
      <trkpt lat="42.95481" lon="0.69351">
        <ele>1552.67</ele>
        <time>2018-11-03T11:17:44Z</time>
      </trkpt>
      <trkpt lat="42.95478" lon="0.69362">
        <ele>1553.15</ele>
        <time>2018-11-03T11:17:56Z</time>
      </trkpt>
      <trkpt lat="42.95475" lon="0.69371">
        <ele>1555.55</ele>
        <time>2018-11-03T11:18:09Z</time>
      </trkpt>
      <trkpt lat="42.95467" lon="0.69381">
        <ele>1555.55</ele>
        <time>2018-11-03T11:18:24Z</time>
      </trkpt>
      <trkpt lat="42.95459" lon="0.69386">
        <ele>1556.51</ele>
        <time>2018-11-03T11:18:53Z</time>
      </trkpt>
      <trkpt lat="42.95451" lon="0.69394">
        <ele>1557.95</ele>
        <time>2018-11-03T11:19:06Z</time>
      </trkpt>
      <trkpt lat="42.95442" lon="0.69401">
        <ele>1559.88</ele>
        <time>2018-11-03T11:19:21Z</time>
      </trkpt>
      <trkpt lat="42.95434" lon="0.69408">
        <ele>1562.76</ele>
        <time>2018-11-03T11:19:38Z</time>
      </trkpt>
      <trkpt lat="42.95425" lon="0.69411">
        <ele>1564.2</ele>
        <time>2018-11-03T11:19:52Z</time>
      </trkpt>
      <trkpt lat="42.95416" lon="0.69412">
        <ele>1565.64</ele>
        <time>2018-11-03T11:20:08Z</time>
      </trkpt>
      <trkpt lat="42.95407" lon="0.69421">
        <ele>1567.09</ele>
        <time>2018-11-03T11:20:22Z</time>
      </trkpt>
      <trkpt lat="42.95399" lon="0.69421">
        <ele>1568.05</ele>
        <time>2018-11-03T11:20:37Z</time>
      </trkpt>
      <trkpt lat="42.95389" lon="0.69425">
        <ele>1570.45</ele>
        <time>2018-11-03T11:20:52Z</time>
      </trkpt>
      <trkpt lat="42.95382" lon="0.6943">
        <ele>1571.89</ele>
        <time>2018-11-03T11:21:07Z</time>
      </trkpt>
      <trkpt lat="42.95371" lon="0.69431">
        <ele>1573.33</ele>
        <time>2018-11-03T11:21:23Z</time>
      </trkpt>
      <trkpt lat="42.95362" lon="0.69436">
        <ele>1575.26</ele>
        <time>2018-11-03T11:21:37Z</time>
      </trkpt>
      <trkpt lat="42.95353" lon="0.69443">
        <ele>1576.7</ele>
        <time>2018-11-03T11:21:52Z</time>
      </trkpt>
      <trkpt lat="42.95343" lon="0.69445">
        <ele>1579.1</ele>
        <time>2018-11-03T11:22:07Z</time>
      </trkpt>
      <trkpt lat="42.95335" lon="0.69451">
        <ele>1580.54</ele>
        <time>2018-11-03T11:22:22Z</time>
      </trkpt>
      <trkpt lat="42.95328" lon="0.6946">
        <ele>1584.39</ele>
        <time>2018-11-03T11:22:46Z</time>
      </trkpt>
      <trkpt lat="42.95319" lon="0.69468">
        <ele>1587.75</ele>
        <time>2018-11-03T11:23:03Z</time>
      </trkpt>
      <trkpt lat="42.95308" lon="0.6947">
        <ele>1589.2</ele>
        <time>2018-11-03T11:23:23Z</time>
      </trkpt>
      <trkpt lat="42.95298" lon="0.69473">
        <ele>1592.08</ele>
        <time>2018-11-03T11:23:41Z</time>
      </trkpt>
      <trkpt lat="42.95289" lon="0.69478">
        <ele>1594.48</ele>
        <time>2018-11-03T11:24:00Z</time>
      </trkpt>
      <trkpt lat="42.9528" lon="0.69483">
        <ele>1597.37</ele>
        <time>2018-11-03T11:24:16Z</time>
      </trkpt>
      <trkpt lat="42.95271" lon="0.69489">
        <ele>1600.25</ele>
        <time>2018-11-03T11:24:35Z</time>
      </trkpt>
      <trkpt lat="42.95262" lon="0.69495">
        <ele>1602.66</ele>
        <time>2018-11-03T11:24:51Z</time>
      </trkpt>
      <trkpt lat="42.95256" lon="0.69502">
        <ele>1605.54</ele>
        <time>2018-11-03T11:25:11Z</time>
      </trkpt>
      <trkpt lat="42.95247" lon="0.69506">
        <ele>1609.38</ele>
        <time>2018-11-03T11:25:30Z</time>
      </trkpt>
      <trkpt lat="42.95236" lon="0.69513">
        <ele>1613.23</ele>
        <time>2018-11-03T11:25:57Z</time>
      </trkpt>
      <trkpt lat="42.95225" lon="0.6952">
        <ele>1616.59</ele>
        <time>2018-11-03T11:26:21Z</time>
      </trkpt>
      <trkpt lat="42.95218" lon="0.69526">
        <ele>1619.96</ele>
        <time>2018-11-03T11:26:39Z</time>
      </trkpt>
      <trkpt lat="42.95211" lon="0.69534">
        <ele>1621.88</ele>
        <time>2018-11-03T11:26:59Z</time>
      </trkpt>
      <trkpt lat="42.95204" lon="0.69538">
        <ele>1624.77</ele>
        <time>2018-11-03T11:27:17Z</time>
      </trkpt>
      <trkpt lat="42.95194" lon="0.69544">
        <ele>1629.09</ele>
        <time>2018-11-03T11:27:40Z</time>
      </trkpt>
      <trkpt lat="42.95186" lon="0.69551">
        <ele>1631.49</ele>
        <time>2018-11-03T11:28:01Z</time>
      </trkpt>
      <trkpt lat="42.95177" lon="0.69558">
        <ele>1634.38</ele>
        <time>2018-11-03T11:28:20Z</time>
      </trkpt>
      <trkpt lat="42.9517" lon="0.69561">
        <ele>1638.7</ele>
        <time>2018-11-03T11:28:45Z</time>
      </trkpt>
      <trkpt lat="42.95159" lon="0.69564">
        <ele>1641.59</ele>
        <time>2018-11-03T11:29:06Z</time>
      </trkpt>
      <trkpt lat="42.95148" lon="0.69568">
        <ele>1644.47</ele>
        <time>2018-11-03T11:29:27Z</time>
      </trkpt>
      <trkpt lat="42.9514" lon="0.69573">
        <ele>1648.8</ele>
        <time>2018-11-03T11:29:49Z</time>
      </trkpt>
      <trkpt lat="42.95131" lon="0.69582">
        <ele>1652.64</ele>
        <time>2018-11-03T11:30:13Z</time>
      </trkpt>
      <trkpt lat="42.95123" lon="0.69582">
        <ele>1653.6</ele>
        <time>2018-11-03T11:30:29Z</time>
      </trkpt>
      <trkpt lat="42.95115" lon="0.69588">
        <ele>1657.45</ele>
        <time>2018-11-03T11:30:50Z</time>
      </trkpt>
      <trkpt lat="42.95108" lon="0.69591">
        <ele>1659.85</ele>
        <time>2018-11-03T11:31:13Z</time>
      </trkpt>
      <trkpt lat="42.95099" lon="0.69597">
        <ele>1664.66</ele>
        <time>2018-11-03T11:31:38Z</time>
      </trkpt>
      <trkpt lat="42.9509" lon="0.69598">
        <ele>1667.06</ele>
        <time>2018-11-03T11:31:59Z</time>
      </trkpt>
      <trkpt lat="42.9508" lon="0.69602">
        <ele>1669.95</ele>
        <time>2018-11-03T11:32:19Z</time>
      </trkpt>
      <trkpt lat="42.95072" lon="0.69604">
        <ele>1673.31</ele>
        <time>2018-11-03T11:32:41Z</time>
      </trkpt>
      <trkpt lat="42.95064" lon="0.69608">
        <ele>1677.16</ele>
        <time>2018-11-03T11:33:02Z</time>
      </trkpt>
      <trkpt lat="42.95058" lon="0.69616">
        <ele>1680.52</ele>
        <time>2018-11-03T11:33:25Z</time>
      </trkpt>
      <trkpt lat="42.9505" lon="0.69619">
        <ele>1683.89</ele>
        <time>2018-11-03T11:34:09Z</time>
      </trkpt>
      <trkpt lat="42.95044" lon="0.69626">
        <ele>1687.25</ele>
        <time>2018-11-03T11:34:36Z</time>
      </trkpt>
      <trkpt lat="42.95035" lon="0.69628">
        <ele>1690.62</ele>
        <time>2018-11-03T11:35:00Z</time>
      </trkpt>
      <trkpt lat="42.95027" lon="0.69632">
        <ele>1693.5</ele>
        <time>2018-11-03T11:35:23Z</time>
      </trkpt>
      <trkpt lat="42.9502" lon="0.69638">
        <ele>1697.34</ele>
        <time>2018-11-03T11:35:47Z</time>
      </trkpt>
      <trkpt lat="42.95011" lon="0.69643">
        <ele>1700.71</ele>
        <time>2018-11-03T11:36:18Z</time>
      </trkpt>
      <trkpt lat="42.95003" lon="0.69648">
        <ele>1703.59</ele>
        <time>2018-11-03T11:36:42Z</time>
      </trkpt>
      <trkpt lat="42.94996" lon="0.69657">
        <ele>1706.48</ele>
        <time>2018-11-03T11:37:06Z</time>
      </trkpt>
      <trkpt lat="42.94986" lon="0.69657">
        <ele>1709.84</ele>
        <time>2018-11-03T11:37:29Z</time>
      </trkpt>
      <trkpt lat="42.94977" lon="0.69659">
        <ele>1712.73</ele>
        <time>2018-11-03T11:37:51Z</time>
      </trkpt>
      <trkpt lat="42.94968" lon="0.6966">
        <ele>1714.65</ele>
        <time>2018-11-03T11:38:10Z</time>
      </trkpt>
      <trkpt lat="42.94959" lon="0.69661">
        <ele>1717.53</ele>
        <time>2018-11-03T11:38:30Z</time>
      </trkpt>
      <trkpt lat="42.9495" lon="0.69661">
        <ele>1720.42</ele>
        <time>2018-11-03T11:38:49Z</time>
      </trkpt>
      <trkpt lat="42.94942" lon="0.69662">
        <ele>1723.78</ele>
        <time>2018-11-03T11:39:14Z</time>
      </trkpt>
      <trkpt lat="42.94933" lon="0.69663">
        <ele>1727.63</ele>
        <time>2018-11-03T11:39:40Z</time>
      </trkpt>
      <trkpt lat="42.94927" lon="0.69662">
        <ele>1730.99</ele>
        <time>2018-11-03T11:40:08Z</time>
      </trkpt>
      <trkpt lat="42.94921" lon="0.69656">
        <ele>1735.32</ele>
        <time>2018-11-03T11:40:31Z</time>
      </trkpt>
      <trkpt lat="42.94914" lon="0.69659">
        <ele>1738.2</ele>
        <time>2018-11-03T11:40:55Z</time>
      </trkpt>
      <trkpt lat="42.94906" lon="0.69657">
        <ele>1741.57</ele>
        <time>2018-11-03T11:41:21Z</time>
      </trkpt>
      <trkpt lat="42.94897" lon="0.69653">
        <ele>1745.41</ele>
        <time>2018-11-03T11:41:53Z</time>
      </trkpt>
      <trkpt lat="42.94893" lon="0.69641">
        <ele>1747.81</ele>
        <time>2018-11-03T11:42:16Z</time>
      </trkpt>
      <trkpt lat="42.94882" lon="0.6964">
        <ele>1751.18</ele>
        <time>2018-11-03T11:42:38Z</time>
      </trkpt>
      <trkpt lat="42.94874" lon="0.69641">
        <ele>1753.58</ele>
        <time>2018-11-03T11:42:59Z</time>
      </trkpt>
      <trkpt lat="42.94869" lon="0.69633">
        <ele>1755.99</ele>
        <time>2018-11-03T11:43:21Z</time>
      </trkpt>
      <trkpt lat="42.94861" lon="0.69628">
        <ele>1759.35</ele>
        <time>2018-11-03T11:43:46Z</time>
      </trkpt>
      <trkpt lat="42.94863" lon="0.69618">
        <ele>1761.27</ele>
        <time>2018-11-03T11:44:31Z</time>
      </trkpt>
      <trkpt lat="42.94853" lon="0.69629">
        <ele>1760.79</ele>
        <time>2018-11-03T11:46:57Z</time>
      </trkpt>
      <trkpt lat="42.94852" lon="0.69631">
        <ele>1760.79</ele>
        <time>2018-11-03T11:47:49Z</time>
      </trkpt>
      <trkpt lat="42.94855" lon="0.69632">
        <ele>1760.79</ele>
        <time>2018-11-03T11:49:44Z</time>
      </trkpt>
      <trkpt lat="42.94866" lon="0.69632">
        <ele>1757.43</ele>
        <time>2018-11-03T11:50:00Z</time>
      </trkpt>
      <trkpt lat="42.94873" lon="0.69637">
        <ele>1755.5</ele>
        <time>2018-11-03T11:50:14Z</time>
      </trkpt>
      <trkpt lat="42.94878" lon="0.69646">
        <ele>1753.58</ele>
        <time>2018-11-03T11:50:26Z</time>
      </trkpt>
      <trkpt lat="42.94878" lon="0.69658">
        <ele>1750.7</ele>
        <time>2018-11-03T11:50:39Z</time>
      </trkpt>
      <trkpt lat="42.94883" lon="0.69668">
        <ele>1747.33</ele>
        <time>2018-11-03T11:50:54Z</time>
      </trkpt>
      <trkpt lat="42.94892" lon="0.69671">
        <ele>1744.93</ele>
        <time>2018-11-03T11:51:05Z</time>
      </trkpt>
      <trkpt lat="42.949" lon="0.69676">
        <ele>1742.05</ele>
        <time>2018-11-03T11:51:18Z</time>
      </trkpt>
      <trkpt lat="42.94906" lon="0.69683">
        <ele>1738.68</ele>
        <time>2018-11-03T11:51:31Z</time>
      </trkpt>
      <trkpt lat="42.94913" lon="0.69683">
        <ele>1735.32</ele>
        <time>2018-11-03T11:51:51Z</time>
      </trkpt>
      <trkpt lat="42.9492" lon="0.69677">
        <ele>1731.95</ele>
        <time>2018-11-03T11:52:04Z</time>
      </trkpt>
      <trkpt lat="42.94919" lon="0.69691">
        <ele>1730.03</ele>
        <time>2018-11-03T11:52:29Z</time>
      </trkpt>
      <trkpt lat="42.94923" lon="0.69701">
        <ele>1728.11</ele>
        <time>2018-11-03T11:52:40Z</time>
      </trkpt>
      <trkpt lat="42.94931" lon="0.69709">
        <ele>1728.11</ele>
        <time>2018-11-03T11:52:50Z</time>
      </trkpt>
      <trkpt lat="42.94937" lon="0.69719">
        <ele>1728.11</ele>
        <time>2018-11-03T11:53:00Z</time>
      </trkpt>
      <trkpt lat="42.94945" lon="0.69726">
        <ele>1729.55</ele>
        <time>2018-11-03T11:53:12Z</time>
      </trkpt>
      <trkpt lat="42.94954" lon="0.69731">
        <ele>1731.47</ele>
        <time>2018-11-03T11:53:26Z</time>
      </trkpt>
      <trkpt lat="42.94964" lon="0.69732">
        <ele>1732.43</ele>
        <time>2018-11-03T11:53:37Z</time>
      </trkpt>
      <trkpt lat="42.94973" lon="0.69735">
        <ele>1734.36</ele>
        <time>2018-11-03T11:53:49Z</time>
      </trkpt>
      <trkpt lat="42.94983" lon="0.69739">
        <ele>1735.8</ele>
        <time>2018-11-03T11:54:02Z</time>
      </trkpt>
      <trkpt lat="42.94991" lon="0.69744">
        <ele>1737.24</ele>
        <time>2018-11-03T11:54:16Z</time>
      </trkpt>
      <trkpt lat="42.94999" lon="0.69751">
        <ele>1739.64</ele>
        <time>2018-11-03T11:54:33Z</time>
      </trkpt>
      <trkpt lat="42.95009" lon="0.69755">
        <ele>1741.08</ele>
        <time>2018-11-03T11:54:46Z</time>
      </trkpt>
      <trkpt lat="42.95017" lon="0.69761">
        <ele>1742.53</ele>
        <time>2018-11-03T11:55:02Z</time>
      </trkpt>
      <trkpt lat="42.95025" lon="0.6977">
        <ele>1746.37</ele>
        <time>2018-11-03T11:55:22Z</time>
      </trkpt>
      <trkpt lat="42.95031" lon="0.69779">
        <ele>1749.74</ele>
        <time>2018-11-03T11:55:44Z</time>
      </trkpt>
      <trkpt lat="42.9504" lon="0.69787">
        <ele>1752.62</ele>
        <time>2018-11-03T11:56:08Z</time>
      </trkpt>
      <trkpt lat="42.95049" lon="0.69792">
        <ele>1754.54</ele>
        <time>2018-11-03T11:56:25Z</time>
      </trkpt>
      <trkpt lat="42.95054" lon="0.69803">
        <ele>1757.43</ele>
        <time>2018-11-03T11:56:41Z</time>
      </trkpt>
      <trkpt lat="42.95057" lon="0.69815">
        <ele>1761.75</ele>
        <time>2018-11-03T11:57:06Z</time>
      </trkpt>
      <trkpt lat="42.95051" lon="0.69823">
        <ele>1764.64</ele>
        <time>2018-11-03T11:57:28Z</time>
      </trkpt>
      <trkpt lat="42.9504" lon="0.69826">
        <ele>1768.48</ele>
        <time>2018-11-03T11:57:54Z</time>
      </trkpt>
      <trkpt lat="42.95032" lon="0.69832">
        <ele>1772.33</ele>
        <time>2018-11-03T11:58:20Z</time>
      </trkpt>
      <trkpt lat="42.95025" lon="0.69837">
        <ele>1775.69</ele>
        <time>2018-11-03T11:58:49Z</time>
      </trkpt>
      <trkpt lat="42.95027" lon="0.69841">
        <ele>1780.02</ele>
        <time>2018-11-03T11:59:16Z</time>
      </trkpt>
      <trkpt lat="42.95021" lon="0.6985">
        <ele>1782.42</ele>
        <time>2018-11-03T11:59:51Z</time>
      </trkpt>
      <trkpt lat="42.95019" lon="0.69855">
        <ele>1785.31</ele>
        <time>2018-11-03T12:00:13Z</time>
      </trkpt>
      <trkpt lat="42.95019" lon="0.69861">
        <ele>1787.71</ele>
        <time>2018-11-03T12:00:42Z</time>
      </trkpt>
      <trkpt lat="42.95025" lon="0.69872">
        <ele>1789.15</ele>
        <time>2018-11-03T12:00:59Z</time>
      </trkpt>
      <trkpt lat="42.95028" lon="0.69872">
        <ele>1788.19</ele>
        <time>2018-11-03T12:02:15Z</time>
      </trkpt>
      <trkpt lat="42.95035" lon="0.69877">
        <ele>1785.79</ele>
        <time>2018-11-03T12:02:39Z</time>
      </trkpt>
      <trkpt lat="42.95039" lon="0.6989">
        <ele>1781.94</ele>
        <time>2018-11-03T12:03:02Z</time>
      </trkpt>
      <trkpt lat="42.95039" lon="0.69903">
        <ele>1783.38</ele>
        <time>2018-11-03T12:03:23Z</time>
      </trkpt>
      <trkpt lat="42.95032" lon="0.69909">
        <ele>1784.82</ele>
        <time>2018-11-03T12:03:44Z</time>
      </trkpt>
      <trkpt lat="42.95034" lon="0.69905">
        <ele>1783.86</ele>
        <time>2018-11-03T12:17:06Z</time>
      </trkpt>
      <trkpt lat="42.95034" lon="0.69909">
        <ele>1784.34</ele>
        <time>2018-11-03T12:31:23Z</time>
      </trkpt>
      <trkpt lat="42.95036" lon="0.69905">
        <ele>1786.75</ele>
        <time>2018-11-03T12:41:30Z</time>
      </trkpt>
      <trkpt lat="42.95039" lon="0.69908">
        <ele>1787.71</ele>
        <time>2018-11-03T12:42:38Z</time>
      </trkpt>
      <trkpt lat="42.95046" lon="0.69915">
        <ele>1785.79</ele>
        <time>2018-11-03T12:42:59Z</time>
      </trkpt>
      <trkpt lat="42.95052" lon="0.69919">
        <ele>1783.86</ele>
        <time>2018-11-03T12:43:15Z</time>
      </trkpt>
      <trkpt lat="42.95061" lon="0.69922">
        <ele>1782.42</ele>
        <time>2018-11-03T12:43:34Z</time>
      </trkpt>
      <trkpt lat="42.95069" lon="0.69926">
        <ele>1780.5</ele>
        <time>2018-11-03T12:43:49Z</time>
      </trkpt>
      <trkpt lat="42.95068" lon="0.69934">
        <ele>1776.65</ele>
        <time>2018-11-03T12:44:09Z</time>
      </trkpt>
      <trkpt lat="42.95074" lon="0.69942">
        <ele>1774.25</ele>
        <time>2018-11-03T12:44:24Z</time>
      </trkpt>
      <trkpt lat="42.95067" lon="0.69948">
        <ele>1771.85</ele>
        <time>2018-11-03T12:44:41Z</time>
      </trkpt>
      <trkpt lat="42.95059" lon="0.69949">
        <ele>1769.92</ele>
        <time>2018-11-03T12:44:53Z</time>
      </trkpt>
      <trkpt lat="42.95061" lon="0.69959">
        <ele>1766.08</ele>
        <time>2018-11-03T12:45:09Z</time>
      </trkpt>
      <trkpt lat="42.95068" lon="0.69965">
        <ele>1762.23</ele>
        <time>2018-11-03T12:45:25Z</time>
      </trkpt>
      <trkpt lat="42.95073" lon="0.69971">
        <ele>1758.39</ele>
        <time>2018-11-03T12:45:41Z</time>
      </trkpt>
      <trkpt lat="42.95077" lon="0.69981">
        <ele>1755.5</ele>
        <time>2018-11-03T12:46:06Z</time>
      </trkpt>
      <trkpt lat="42.95081" lon="0.69992">
        <ele>1754.06</ele>
        <time>2018-11-03T12:46:24Z</time>
      </trkpt>
      <trkpt lat="42.95085" lon="0.69998">
        <ele>1749.74</ele>
        <time>2018-11-03T12:46:45Z</time>
      </trkpt>
      <trkpt lat="42.95081" lon="0.70009">
        <ele>1747.33</ele>
        <time>2018-11-03T12:46:56Z</time>
      </trkpt>
      <trkpt lat="42.95081" lon="0.7002">
        <ele>1746.37</ele>
        <time>2018-11-03T12:47:08Z</time>
      </trkpt>
      <trkpt lat="42.95081" lon="0.70033">
        <ele>1749.26</ele>
        <time>2018-11-03T12:47:25Z</time>
      </trkpt>
      <trkpt lat="42.95076" lon="0.70046">
        <ele>1752.14</ele>
        <time>2018-11-03T12:47:40Z</time>
      </trkpt>
      <trkpt lat="42.95069" lon="0.70056">
        <ele>1754.54</ele>
        <time>2018-11-03T12:47:59Z</time>
      </trkpt>
      <trkpt lat="42.95064" lon="0.70065">
        <ele>1755.02</ele>
        <time>2018-11-03T12:48:17Z</time>
      </trkpt>
      <trkpt lat="42.95063" lon="0.70072">
        <ele>1754.54</ele>
        <time>2018-11-03T12:49:01Z</time>
      </trkpt>
      <trkpt lat="42.95054" lon="0.70081">
        <ele>1758.87</ele>
        <time>2018-11-03T12:49:22Z</time>
      </trkpt>
      <trkpt lat="42.95051" lon="0.70093">
        <ele>1761.27</ele>
        <time>2018-11-03T12:49:38Z</time>
      </trkpt>
      <trkpt lat="42.95053" lon="0.70106">
        <ele>1763.68</ele>
        <time>2018-11-03T12:50:00Z</time>
      </trkpt>
      <trkpt lat="42.95051" lon="0.70119">
        <ele>1764.64</ele>
        <time>2018-11-03T12:50:17Z</time>
      </trkpt>
      <trkpt lat="42.95048" lon="0.70129">
        <ele>1768.48</ele>
        <time>2018-11-03T12:50:38Z</time>
      </trkpt>
      <trkpt lat="42.95048" lon="0.70141">
        <ele>1768.48</ele>
        <time>2018-11-03T12:51:13Z</time>
      </trkpt>
      <trkpt lat="42.95049" lon="0.70153">
        <ele>1768.96</ele>
        <time>2018-11-03T12:51:30Z</time>
      </trkpt>
      <trkpt lat="42.95054" lon="0.70165">
        <ele>1766.08</ele>
        <time>2018-11-03T12:51:54Z</time>
      </trkpt>
      <trkpt lat="42.9505" lon="0.70176">
        <ele>1765.12</ele>
        <time>2018-11-03T12:52:23Z</time>
      </trkpt>
      <trkpt lat="42.95046" lon="0.70187">
        <ele>1764.64</ele>
        <time>2018-11-03T12:52:36Z</time>
      </trkpt>
      <trkpt lat="42.95042" lon="0.70198">
        <ele>1766.08</ele>
        <time>2018-11-03T12:52:49Z</time>
      </trkpt>
      <trkpt lat="42.95036" lon="0.70206">
        <ele>1768.48</ele>
        <time>2018-11-03T12:53:07Z</time>
      </trkpt>
      <trkpt lat="42.95038" lon="0.70217">
        <ele>1767.52</ele>
        <time>2018-11-03T12:54:11Z</time>
      </trkpt>
      <trkpt lat="42.95048" lon="0.7021">
        <ele>1763.68</ele>
        <time>2018-11-03T12:54:25Z</time>
      </trkpt>
      <trkpt lat="42.9506" lon="0.70208">
        <ele>1758.87</ele>
        <time>2018-11-03T12:54:42Z</time>
      </trkpt>
      <trkpt lat="42.95067" lon="0.7022">
        <ele>1753.1</ele>
        <time>2018-11-03T12:55:02Z</time>
      </trkpt>
      <trkpt lat="42.95073" lon="0.70233">
        <ele>1746.37</ele>
        <time>2018-11-03T12:55:24Z</time>
      </trkpt>
      <trkpt lat="42.95078" lon="0.70248">
        <ele>1740.12</ele>
        <time>2018-11-03T12:56:10Z</time>
      </trkpt>
      <trkpt lat="42.95085" lon="0.70265">
        <ele>1738.68</ele>
        <time>2018-11-03T12:56:34Z</time>
      </trkpt>
      <trkpt lat="42.95095" lon="0.70279">
        <ele>1736.28</ele>
        <time>2018-11-03T12:56:59Z</time>
      </trkpt>
      <trkpt lat="42.95103" lon="0.70297">
        <ele>1734.36</ele>
        <time>2018-11-03T12:57:21Z</time>
      </trkpt>
      <trkpt lat="42.951" lon="0.70311">
        <ele>1735.32</ele>
        <time>2018-11-03T12:57:37Z</time>
      </trkpt>
      <trkpt lat="42.95094" lon="0.70326">
        <ele>1738.68</ele>
        <time>2018-11-03T12:57:58Z</time>
      </trkpt>
      <trkpt lat="42.95091" lon="0.70338">
        <ele>1740.6</ele>
        <time>2018-11-03T12:58:15Z</time>
      </trkpt>
      <trkpt lat="42.9509" lon="0.70353">
        <ele>1740.12</ele>
        <time>2018-11-03T12:58:36Z</time>
      </trkpt>
      <trkpt lat="42.95091" lon="0.70368">
        <ele>1737.24</ele>
        <time>2018-11-03T12:58:55Z</time>
      </trkpt>
      <trkpt lat="42.95099" lon="0.70381">
        <ele>1734.84</ele>
        <time>2018-11-03T12:59:15Z</time>
      </trkpt>
      <trkpt lat="42.95107" lon="0.70406">
        <ele>1730.03</ele>
        <time>2018-11-03T12:59:58Z</time>
      </trkpt>
      <trkpt lat="42.95108" lon="0.70432">
        <ele>1727.15</ele>
        <time>2018-11-03T13:00:29Z</time>
      </trkpt>
      <trkpt lat="42.95114" lon="0.70442">
        <ele>1724.26</ele>
        <time>2018-11-03T13:01:22Z</time>
      </trkpt>
      <trkpt lat="42.95121" lon="0.70453">
        <ele>1724.26</ele>
        <time>2018-11-03T13:01:41Z</time>
      </trkpt>
      <trkpt lat="42.95126" lon="0.70467">
        <ele>1726.67</ele>
        <time>2018-11-03T13:02:01Z</time>
      </trkpt>
      <trkpt lat="42.95131" lon="0.70485">
        <ele>1728.59</ele>
        <time>2018-11-03T13:02:24Z</time>
      </trkpt>
      <trkpt lat="42.95136" lon="0.70509">
        <ele>1727.15</ele>
        <time>2018-11-03T13:02:53Z</time>
      </trkpt>
      <trkpt lat="42.95142" lon="0.70534">
        <ele>1719.46</ele>
        <time>2018-11-03T13:03:36Z</time>
      </trkpt>
      <trkpt lat="42.95141" lon="0.70552">
        <ele>1716.09</ele>
        <time>2018-11-03T13:04:02Z</time>
      </trkpt>
      <trkpt lat="42.95139" lon="0.70572">
        <ele>1714.65</ele>
        <time>2018-11-03T13:04:23Z</time>
      </trkpt>
      <trkpt lat="42.95135" lon="0.70592">
        <ele>1709.84</ele>
        <time>2018-11-03T13:04:53Z</time>
      </trkpt>
      <trkpt lat="42.95135" lon="0.70607">
        <ele>1704.07</ele>
        <time>2018-11-03T13:05:21Z</time>
      </trkpt>
      <trkpt lat="42.9514" lon="0.7062">
        <ele>1697.83</ele>
        <time>2018-11-03T13:05:54Z</time>
      </trkpt>
      <trkpt lat="42.9514" lon="0.70631">
        <ele>1692.54</ele>
        <time>2018-11-03T13:06:23Z</time>
      </trkpt>
      <trkpt lat="42.95149" lon="0.70628">
        <ele>1689.17</ele>
        <time>2018-11-03T13:06:44Z</time>
      </trkpt>
      <trkpt lat="42.95161" lon="0.70632">
        <ele>1682.93</ele>
        <time>2018-11-03T13:07:17Z</time>
      </trkpt>
      <trkpt lat="42.95159" lon="0.70649">
        <ele>1678.6</ele>
        <time>2018-11-03T13:12:37Z</time>
      </trkpt>
      <trkpt lat="42.95144" lon="0.70663">
        <ele>1672.35</ele>
        <time>2018-11-03T13:13:22Z</time>
      </trkpt>
      <trkpt lat="42.95136" lon="0.70679">
        <ele>1668.02</ele>
        <time>2018-11-03T13:13:52Z</time>
      </trkpt>
      <trkpt lat="42.95136" lon="0.70696">
        <ele>1660.33</ele>
        <time>2018-11-03T13:14:37Z</time>
      </trkpt>
      <trkpt lat="42.95123" lon="0.70727">
        <ele>1654.09</ele>
        <time>2018-11-03T13:15:20Z</time>
      </trkpt>
      <trkpt lat="42.95111" lon="0.70753">
        <ele>1645.91</ele>
        <time>2018-11-03T13:16:02Z</time>
      </trkpt>
      <trkpt lat="42.9511" lon="0.70788">
        <ele>1638.22</ele>
        <time>2018-11-03T13:16:41Z</time>
      </trkpt>
      <trkpt lat="42.95102" lon="0.7082">
        <ele>1632.94</ele>
        <time>2018-11-03T13:17:10Z</time>
      </trkpt>
      <trkpt lat="42.95102" lon="0.70842">
        <ele>1629.09</ele>
        <time>2018-11-03T13:17:37Z</time>
      </trkpt>
      <trkpt lat="42.95098" lon="0.70861">
        <ele>1627.17</ele>
        <time>2018-11-03T13:17:58Z</time>
      </trkpt>
      <trkpt lat="42.95088" lon="0.70886">
        <ele>1619.48</ele>
        <time>2018-11-03T13:18:50Z</time>
      </trkpt>
      <trkpt lat="42.95089" lon="0.7091">
        <ele>1612.75</ele>
        <time>2018-11-03T13:19:26Z</time>
      </trkpt>
      <trkpt lat="42.95081" lon="0.70922">
        <ele>1617.56</ele>
        <time>2018-11-03T13:20:02Z</time>
      </trkpt>
      <trkpt lat="42.95072" lon="0.70947">
        <ele>1619.48</ele>
        <time>2018-11-03T13:20:32Z</time>
      </trkpt>
      <trkpt lat="42.9507" lon="0.70972">
        <ele>1619.48</ele>
        <time>2018-11-03T13:20:54Z</time>
      </trkpt>
      <trkpt lat="42.95061" lon="0.70998">
        <ele>1618.04</ele>
        <time>2018-11-03T13:21:20Z</time>
      </trkpt>
      <trkpt lat="42.95048" lon="0.71008">
        <ele>1614.19</ele>
        <time>2018-11-03T13:21:57Z</time>
      </trkpt>
      <trkpt lat="42.95042" lon="0.71015">
        <ele>1614.19</ele>
        <time>2018-11-03T13:22:40Z</time>
      </trkpt>
      <trkpt lat="42.9504" lon="0.71039">
        <ele>1614.67</ele>
        <time>2018-11-03T13:23:01Z</time>
      </trkpt>
      <trkpt lat="42.95039" lon="0.71059">
        <ele>1611.79</ele>
        <time>2018-11-03T13:23:32Z</time>
      </trkpt>
      <trkpt lat="42.9503" lon="0.71076">
        <ele>1613.71</ele>
        <time>2018-11-03T13:23:52Z</time>
      </trkpt>
      <trkpt lat="42.95025" lon="0.71093">
        <ele>1613.23</ele>
        <time>2018-11-03T13:24:13Z</time>
      </trkpt>
      <trkpt lat="42.95021" lon="0.71121">
        <ele>1606.98</ele>
        <time>2018-11-03T13:24:48Z</time>
      </trkpt>
      <trkpt lat="42.95012" lon="0.71137">
        <ele>1603.14</ele>
        <time>2018-11-03T13:25:16Z</time>
      </trkpt>
      <trkpt lat="42.95003" lon="0.71165">
        <ele>1600.73</ele>
        <time>2018-11-03T13:25:43Z</time>
      </trkpt>
      <trkpt lat="42.94998" lon="0.71188">
        <ele>1600.73</ele>
        <time>2018-11-03T13:26:06Z</time>
      </trkpt>
      <trkpt lat="42.94998" lon="0.71214">
        <ele>1600.25</ele>
        <time>2018-11-03T13:26:31Z</time>
      </trkpt>
      <trkpt lat="42.94988" lon="0.71225">
        <ele>1601.21</ele>
        <time>2018-11-03T13:26:54Z</time>
      </trkpt>
      <trkpt lat="42.94979" lon="0.71243">
        <ele>1595.93</ele>
        <time>2018-11-03T13:27:16Z</time>
      </trkpt>
      <trkpt lat="42.9496" lon="0.71253">
        <ele>1595.93</ele>
        <time>2018-11-03T13:27:31Z</time>
      </trkpt>
      <trkpt lat="42.94951" lon="0.71264">
        <ele>1597.85</ele>
        <time>2018-11-03T13:27:49Z</time>
      </trkpt>
      <trkpt lat="42.94943" lon="0.7128">
        <ele>1598.33</ele>
        <time>2018-11-03T13:28:07Z</time>
      </trkpt>
      <trkpt lat="42.94936" lon="0.71291">
        <ele>1594.96</ele>
        <time>2018-11-03T13:28:27Z</time>
      </trkpt>
      <trkpt lat="42.94926" lon="0.71304">
        <ele>1591.6</ele>
        <time>2018-11-03T13:28:41Z</time>
      </trkpt>
      <trkpt lat="42.94921" lon="0.71313">
        <ele>1590.16</ele>
        <time>2018-11-03T13:28:55Z</time>
      </trkpt>
      <trkpt lat="42.94918" lon="0.71323">
        <ele>1587.27</ele>
        <time>2018-11-03T13:29:09Z</time>
      </trkpt>
      <trkpt lat="42.94911" lon="0.71326">
        <ele>1586.79</ele>
        <time>2018-11-03T13:29:24Z</time>
      </trkpt>
      <trkpt lat="42.94902" lon="0.71318">
        <ele>1584.87</ele>
        <time>2018-11-03T13:29:45Z</time>
      </trkpt>
      <trkpt lat="42.94893" lon="0.71321">
        <ele>1581.99</ele>
        <time>2018-11-03T13:30:00Z</time>
      </trkpt>
      <trkpt lat="42.94888" lon="0.71325">
        <ele>1579.58</ele>
        <time>2018-11-03T13:30:21Z</time>
      </trkpt>
      <trkpt lat="42.9488" lon="0.7132">
        <ele>1576.7</ele>
        <time>2018-11-03T13:30:33Z</time>
      </trkpt>
      <trkpt lat="42.94872" lon="0.71315">
        <ele>1573.82</ele>
        <time>2018-11-03T13:30:47Z</time>
      </trkpt>
      <trkpt lat="42.94864" lon="0.71306">
        <ele>1569.49</ele>
        <time>2018-11-03T13:30:59Z</time>
      </trkpt>
      <trkpt lat="42.94858" lon="0.71311">
        <ele>1566.12</ele>
        <time>2018-11-03T13:31:12Z</time>
      </trkpt>
      <trkpt lat="42.94851" lon="0.713">
        <ele>1561.32</ele>
        <time>2018-11-03T13:31:26Z</time>
      </trkpt>
      <trkpt lat="42.94845" lon="0.71305">
        <ele>1556.99</ele>
        <time>2018-11-03T13:31:39Z</time>
      </trkpt>
      <trkpt lat="42.94836" lon="0.71313">
        <ele>1554.11</ele>
        <time>2018-11-03T13:31:52Z</time>
      </trkpt>
      <trkpt lat="42.94829" lon="0.7132">
        <ele>1548.82</ele>
        <time>2018-11-03T13:32:04Z</time>
      </trkpt>
      <trkpt lat="42.94821" lon="0.71324">
        <ele>1544.98</ele>
        <time>2018-11-03T13:32:19Z</time>
      </trkpt>
      <trkpt lat="42.94814" lon="0.71328">
        <ele>1540.65</ele>
        <time>2018-11-03T13:32:35Z</time>
      </trkpt>
      <trkpt lat="42.94807" lon="0.71339">
        <ele>1537.77</ele>
        <time>2018-11-03T13:32:54Z</time>
      </trkpt>
      <trkpt lat="42.94795" lon="0.71341">
        <ele>1534.4</ele>
        <time>2018-11-03T13:33:10Z</time>
      </trkpt>
      <trkpt lat="42.94785" lon="0.71339">
        <ele>1531.52</ele>
        <time>2018-11-03T13:33:21Z</time>
      </trkpt>
      <trkpt lat="42.94778" lon="0.71343">
        <ele>1529.11</ele>
        <time>2018-11-03T13:33:32Z</time>
      </trkpt>
      <trkpt lat="42.94768" lon="0.71347">
        <ele>1525.27</ele>
        <time>2018-11-03T13:33:42Z</time>
      </trkpt>
      <trkpt lat="42.9476" lon="0.71354">
        <ele>1522.87</ele>
        <time>2018-11-03T13:33:52Z</time>
      </trkpt>
      <trkpt lat="42.94752" lon="0.71363">
        <ele>1520.46</ele>
        <time>2018-11-03T13:34:02Z</time>
      </trkpt>
      <trkpt lat="42.94745" lon="0.71373">
        <ele>1517.1</ele>
        <time>2018-11-03T13:34:10Z</time>
      </trkpt>
      <trkpt lat="42.94736" lon="0.71381">
        <ele>1514.21</ele>
        <time>2018-11-03T13:34:18Z</time>
      </trkpt>
      <trkpt lat="42.9473" lon="0.71392">
        <ele>1512.77</ele>
        <time>2018-11-03T13:34:28Z</time>
      </trkpt>
      <trkpt lat="42.94726" lon="0.71404">
        <ele>1510.85</ele>
        <time>2018-11-03T13:34:39Z</time>
      </trkpt>
      <trkpt lat="42.94722" lon="0.71411">
        <ele>1508.45</ele>
        <time>2018-11-03T13:34:56Z</time>
      </trkpt>
      <trkpt lat="42.94718" lon="0.71421">
        <ele>1513.25</ele>
        <time>2018-11-03T13:45:23Z</time>
      </trkpt>
      <trkpt lat="42.94712" lon="0.71433">
        <ele>1515.66</ele>
        <time>2018-11-03T13:45:39Z</time>
      </trkpt>
      <trkpt lat="42.94707" lon="0.71444">
        <ele>1513.25</ele>
        <time>2018-11-03T13:45:52Z</time>
      </trkpt>
      <trkpt lat="42.94701" lon="0.71456">
        <ele>1512.29</ele>
        <time>2018-11-03T13:46:03Z</time>
      </trkpt>
      <trkpt lat="42.94697" lon="0.7147">
        <ele>1513.25</ele>
        <time>2018-11-03T13:46:13Z</time>
      </trkpt>
      <trkpt lat="42.94693" lon="0.71484">
        <ele>1511.81</ele>
        <time>2018-11-03T13:46:24Z</time>
      </trkpt>
      <trkpt lat="42.94687" lon="0.71496">
        <ele>1510.37</ele>
        <time>2018-11-03T13:46:33Z</time>
      </trkpt>
      <trkpt lat="42.94681" lon="0.71507">
        <ele>1507.97</ele>
        <time>2018-11-03T13:46:51Z</time>
      </trkpt>
      <trkpt lat="42.94675" lon="0.71521">
        <ele>1507</ele>
        <time>2018-11-03T13:47:03Z</time>
      </trkpt>
      <trkpt lat="42.94668" lon="0.71532">
        <ele>1507</ele>
        <time>2018-11-03T13:47:13Z</time>
      </trkpt>
      <trkpt lat="42.94663" lon="0.71545">
        <ele>1506.52</ele>
        <time>2018-11-03T13:47:24Z</time>
      </trkpt>
      <trkpt lat="42.94656" lon="0.71556">
        <ele>1505.56</ele>
        <time>2018-11-03T13:47:36Z</time>
      </trkpt>
      <trkpt lat="42.94648" lon="0.71569">
        <ele>1503.16</ele>
        <time>2018-11-03T13:47:49Z</time>
      </trkpt>
      <trkpt lat="42.94641" lon="0.7158">
        <ele>1502.68</ele>
        <time>2018-11-03T13:47:58Z</time>
      </trkpt>
      <trkpt lat="42.94639" lon="0.71594">
        <ele>1504.6</ele>
        <time>2018-11-03T13:48:12Z</time>
      </trkpt>
      <trkpt lat="42.94636" lon="0.71617">
        <ele>1501.24</ele>
        <time>2018-11-03T13:48:30Z</time>
      </trkpt>
      <trkpt lat="42.94635" lon="0.71637">
        <ele>1499.31</ele>
        <time>2018-11-03T13:48:46Z</time>
      </trkpt>
      <trkpt lat="42.94634" lon="0.71658">
        <ele>1496.91</ele>
        <time>2018-11-03T13:49:06Z</time>
      </trkpt>
      <trkpt lat="42.94632" lon="0.71684">
        <ele>1494.99</ele>
        <time>2018-11-03T13:49:25Z</time>
      </trkpt>
      <trkpt lat="42.94629" lon="0.71703">
        <ele>1493.55</ele>
        <time>2018-11-03T13:49:39Z</time>
      </trkpt>
      <trkpt lat="42.94622" lon="0.71721">
        <ele>1494.51</ele>
        <time>2018-11-03T13:49:51Z</time>
      </trkpt>
      <trkpt lat="42.94614" lon="0.71737">
        <ele>1496.91</ele>
        <time>2018-11-03T13:50:09Z</time>
      </trkpt>
      <trkpt lat="42.94612" lon="0.71759">
        <ele>1495.47</ele>
        <time>2018-11-03T13:50:38Z</time>
      </trkpt>
      <trkpt lat="42.94605" lon="0.71777">
        <ele>1495.47</ele>
        <time>2018-11-03T13:50:57Z</time>
      </trkpt>
      <trkpt lat="42.946" lon="0.71797">
        <ele>1495.95</ele>
        <time>2018-11-03T13:51:12Z</time>
      </trkpt>
      <trkpt lat="42.94597" lon="0.71809">
        <ele>1494.51</ele>
        <time>2018-11-03T13:51:58Z</time>
      </trkpt>
      <trkpt lat="42.94587" lon="0.71825">
        <ele>1494.51</ele>
        <time>2018-11-03T13:52:14Z</time>
      </trkpt>
      <trkpt lat="42.94583" lon="0.71837">
        <ele>1492.1</ele>
        <time>2018-11-03T13:52:57Z</time>
      </trkpt>
      <trkpt lat="42.94577" lon="0.71853">
        <ele>1489.22</ele>
        <time>2018-11-03T13:53:15Z</time>
      </trkpt>
      <trkpt lat="42.94569" lon="0.71866">
        <ele>1491.62</ele>
        <time>2018-11-03T13:53:36Z</time>
      </trkpt>
      <trkpt lat="42.94562" lon="0.71883">
        <ele>1493.06</ele>
        <time>2018-11-03T13:53:51Z</time>
      </trkpt>
      <trkpt lat="42.94547" lon="0.719">
        <ele>1497.39</ele>
        <time>2018-11-03T13:54:11Z</time>
      </trkpt>
      <trkpt lat="42.94536" lon="0.71913">
        <ele>1502.2</ele>
        <time>2018-11-03T13:54:34Z</time>
      </trkpt>
      <trkpt lat="42.94527" lon="0.71925">
        <ele>1504.6</ele>
        <time>2018-11-03T13:54:52Z</time>
      </trkpt>
      <trkpt lat="42.94514" lon="0.71939">
        <ele>1503.16</ele>
        <time>2018-11-03T13:55:06Z</time>
      </trkpt>
      <trkpt lat="42.94498" lon="0.71957">
        <ele>1501.72</ele>
        <time>2018-11-03T13:55:30Z</time>
      </trkpt>
      <trkpt lat="42.94486" lon="0.71963">
        <ele>1497.39</ele>
        <time>2018-11-03T13:55:51Z</time>
      </trkpt>
      <trkpt lat="42.9447" lon="0.71977">
        <ele>1490.18</ele>
        <time>2018-11-03T13:56:17Z</time>
      </trkpt>
      <trkpt lat="42.94472" lon="0.71996">
        <ele>1485.37</ele>
        <time>2018-11-03T13:56:38Z</time>
      </trkpt>
      <trkpt lat="42.9446" lon="0.72012">
        <ele>1479.13</ele>
        <time>2018-11-03T13:57:05Z</time>
      </trkpt>
      <trkpt lat="42.94453" lon="0.72024">
        <ele>1475.76</ele>
        <time>2018-11-03T13:57:20Z</time>
      </trkpt>
      <trkpt lat="42.94451" lon="0.72042">
        <ele>1473.36</ele>
        <time>2018-11-03T13:57:37Z</time>
      </trkpt>
      <trkpt lat="42.94445" lon="0.72055">
        <ele>1467.59</ele>
        <time>2018-11-03T13:58:06Z</time>
      </trkpt>
      <trkpt lat="42.94438" lon="0.72034">
        <ele>1462.78</ele>
        <time>2018-11-03T13:58:31Z</time>
      </trkpt>
      <trkpt lat="42.94432" lon="0.72018">
        <ele>1457.5</ele>
        <time>2018-11-03T13:58:56Z</time>
      </trkpt>
      <trkpt lat="42.94416" lon="0.72009">
        <ele>1450.77</ele>
        <time>2018-11-03T13:59:22Z</time>
      </trkpt>
      <trkpt lat="42.944" lon="0.72005">
        <ele>1445</ele>
        <time>2018-11-03T13:59:46Z</time>
      </trkpt>
      <trkpt lat="42.94382" lon="0.71996">
        <ele>1440.67</ele>
        <time>2018-11-03T14:00:12Z</time>
      </trkpt>
      <trkpt lat="42.94365" lon="0.7199">
        <ele>1435.87</ele>
        <time>2018-11-03T14:00:34Z</time>
      </trkpt>
      <trkpt lat="42.94349" lon="0.71978">
        <ele>1433.94</ele>
        <time>2018-11-03T14:00:51Z</time>
      </trkpt>
      <trkpt lat="42.94332" lon="0.71979">
        <ele>1429.62</ele>
        <time>2018-11-03T14:01:15Z</time>
      </trkpt>
      <trkpt lat="42.94315" lon="0.71975">
        <ele>1425.77</ele>
        <time>2018-11-03T14:01:40Z</time>
      </trkpt>
      <trkpt lat="42.943" lon="0.7197">
        <ele>1422.89</ele>
        <time>2018-11-03T14:01:59Z</time>
      </trkpt>
      <trkpt lat="42.94283" lon="0.71975">
        <ele>1417.12</ele>
        <time>2018-11-03T14:02:24Z</time>
      </trkpt>
      <trkpt lat="42.94264" lon="0.71975">
        <ele>1410.39</ele>
        <time>2018-11-03T14:02:49Z</time>
      </trkpt>
      <trkpt lat="42.9425" lon="0.71971">
        <ele>1405.58</ele>
        <time>2018-11-03T14:03:08Z</time>
      </trkpt>
      <trkpt lat="42.94237" lon="0.71974">
        <ele>1399.82</ele>
        <time>2018-11-03T14:03:32Z</time>
      </trkpt>
      <trkpt lat="42.9422" lon="0.71979">
        <ele>1394.53</ele>
        <time>2018-11-03T14:03:52Z</time>
      </trkpt>
      <trkpt lat="42.94205" lon="0.7198">
        <ele>1390.2</ele>
        <time>2018-11-03T14:04:08Z</time>
      </trkpt>
      <trkpt lat="42.94192" lon="0.71981">
        <ele>1385.4</ele>
        <time>2018-11-03T14:04:26Z</time>
      </trkpt>
      <trkpt lat="42.94177" lon="0.71988">
        <ele>1380.59</ele>
        <time>2018-11-03T14:04:42Z</time>
      </trkpt>
      <trkpt lat="42.94167" lon="0.72001">
        <ele>1373.86</ele>
        <time>2018-11-03T14:04:58Z</time>
      </trkpt>
      <trkpt lat="42.9415" lon="0.72012">
        <ele>1367.13</ele>
        <time>2018-11-03T14:05:20Z</time>
      </trkpt>
      <trkpt lat="42.94139" lon="0.72022">
        <ele>1363.29</ele>
        <time>2018-11-03T14:05:33Z</time>
      </trkpt>
      <trkpt lat="42.94133" lon="0.72031">
        <ele>1360.4</ele>
        <time>2018-11-03T14:05:46Z</time>
      </trkpt>
      <trkpt lat="42.94126" lon="0.72038">
        <ele>1357.52</ele>
        <time>2018-11-03T14:05:56Z</time>
      </trkpt>
      <trkpt lat="42.94119" lon="0.72046">
        <ele>1355.12</ele>
        <time>2018-11-03T14:06:08Z</time>
      </trkpt>
      <trkpt lat="42.94113" lon="0.72055">
        <ele>1352.71</ele>
        <time>2018-11-03T14:06:18Z</time>
      </trkpt>
      <trkpt lat="42.94106" lon="0.72063">
        <ele>1349.35</ele>
        <time>2018-11-03T14:06:27Z</time>
      </trkpt>
      <trkpt lat="42.94099" lon="0.72072">
        <ele>1347.91</ele>
        <time>2018-11-03T14:06:35Z</time>
      </trkpt>
      <trkpt lat="42.9409" lon="0.72078">
        <ele>1347.43</ele>
        <time>2018-11-03T14:06:44Z</time>
      </trkpt>
      <trkpt lat="42.94082" lon="0.72084">
        <ele>1348.87</ele>
        <time>2018-11-03T14:06:53Z</time>
      </trkpt>
      <trkpt lat="42.94074" lon="0.72093">
        <ele>1348.39</ele>
        <time>2018-11-03T14:07:05Z</time>
      </trkpt>
      <trkpt lat="42.9407" lon="0.72097">
        <ele>1349.35</ele>
        <time>2018-11-03T14:16:33Z</time>
      </trkpt>
      <trkpt lat="42.94066" lon="0.72098">
        <ele>1346.46</ele>
        <time>2018-11-03T14:17:15Z</time>
      </trkpt>
      <trkpt lat="42.94057" lon="0.72107">
        <ele>1343.1</ele>
        <time>2018-11-03T14:17:35Z</time>
      </trkpt>
      <trkpt lat="42.94047" lon="0.72111">
        <ele>1339.73</ele>
        <time>2018-11-03T14:17:51Z</time>
      </trkpt>
      <trkpt lat="42.94035" lon="0.72118">
        <ele>1336.85</ele>
        <time>2018-11-03T14:18:06Z</time>
      </trkpt>
      <trkpt lat="42.94025" lon="0.72123">
        <ele>1333.01</ele>
        <time>2018-11-03T14:18:19Z</time>
      </trkpt>
      <trkpt lat="42.9401" lon="0.72129">
        <ele>1330.6</ele>
        <time>2018-11-03T14:18:38Z</time>
      </trkpt>
      <trkpt lat="42.93996" lon="0.72131">
        <ele>1327.24</ele>
        <time>2018-11-03T14:18:56Z</time>
      </trkpt>
      <trkpt lat="42.93982" lon="0.72131">
        <ele>1323.87</ele>
        <time>2018-11-03T14:19:13Z</time>
      </trkpt>
      <trkpt lat="42.93971" lon="0.72135">
        <ele>1320.51</ele>
        <time>2018-11-03T14:19:27Z</time>
      </trkpt>
      <trkpt lat="42.93955" lon="0.72151">
        <ele>1315.7</ele>
        <time>2018-11-03T14:19:50Z</time>
      </trkpt>
      <trkpt lat="42.93941" lon="0.7216">
        <ele>1312.34</ele>
        <time>2018-11-03T14:20:08Z</time>
      </trkpt>
      <trkpt lat="42.93931" lon="0.7217">
        <ele>1309.45</ele>
        <time>2018-11-03T14:20:23Z</time>
      </trkpt>
      <trkpt lat="42.93917" lon="0.72177">
        <ele>1305.61</ele>
        <time>2018-11-03T14:20:45Z</time>
      </trkpt>
      <trkpt lat="42.93893" lon="0.72181">
        <ele>1301.28</ele>
        <time>2018-11-03T14:21:09Z</time>
      </trkpt>
      <trkpt lat="42.93871" lon="0.72182">
        <ele>1297.92</ele>
        <time>2018-11-03T14:21:30Z</time>
      </trkpt>
      <trkpt lat="42.93855" lon="0.72156">
        <ele>1294.55</ele>
        <time>2018-11-03T14:21:58Z</time>
      </trkpt>
      <trkpt lat="42.9384" lon="0.72128">
        <ele>1289.27</ele>
        <time>2018-11-03T14:22:23Z</time>
      </trkpt>
      <trkpt lat="42.93827" lon="0.72109">
        <ele>1287.34</ele>
        <time>2018-11-03T14:23:05Z</time>
      </trkpt>
      <trkpt lat="42.93813" lon="0.72094">
        <ele>1284.94</ele>
        <time>2018-11-03T14:23:33Z</time>
      </trkpt>
      <trkpt lat="42.93794" lon="0.72083">
        <ele>1281.09</ele>
        <time>2018-11-03T14:23:52Z</time>
      </trkpt>
      <trkpt lat="42.93775" lon="0.72069">
        <ele>1277.73</ele>
        <time>2018-11-03T14:24:12Z</time>
      </trkpt>
      <trkpt lat="42.93775" lon="0.72067">
        <ele>1272.92</ele>
        <time>2018-11-03T14:24:37Z</time>
      </trkpt>
      <trkpt lat="42.93811" lon="0.72063">
        <ele>1265.23</ele>
        <time>2018-11-03T14:25:07Z</time>
      </trkpt>
      <trkpt lat="42.9384" lon="0.72075">
        <ele>1257.06</ele>
        <time>2018-11-03T14:25:38Z</time>
      </trkpt>
      <trkpt lat="42.93864" lon="0.72085">
        <ele>1247.93</ele>
        <time>2018-11-03T14:26:08Z</time>
      </trkpt>
      <trkpt lat="42.93879" lon="0.72077">
        <ele>1241.68</ele>
        <time>2018-11-03T14:26:28Z</time>
      </trkpt>
      <trkpt lat="42.93891" lon="0.72063">
        <ele>1237.35</ele>
        <time>2018-11-03T14:26:46Z</time>
      </trkpt>
      <trkpt lat="42.93907" lon="0.72042">
        <ele>1231.11</ele>
        <time>2018-11-03T14:27:08Z</time>
      </trkpt>
      <trkpt lat="42.93918" lon="0.72024">
        <ele>1227.74</ele>
        <time>2018-11-03T14:27:23Z</time>
      </trkpt>
      <trkpt lat="42.93927" lon="0.72007">
        <ele>1222.93</ele>
        <time>2018-11-03T14:27:40Z</time>
      </trkpt>
      <trkpt lat="42.93936" lon="0.71987">
        <ele>1217.65</ele>
        <time>2018-11-03T14:28:00Z</time>
      </trkpt>
      <trkpt lat="42.93935" lon="0.71962">
        <ele>1211.4</ele>
        <time>2018-11-03T14:28:25Z</time>
      </trkpt>
      <trkpt lat="42.93937" lon="0.7194">
        <ele>1204.19</ele>
        <time>2018-11-03T14:28:48Z</time>
      </trkpt>
      <trkpt lat="42.93944" lon="0.71913">
        <ele>1197.46</ele>
        <time>2018-11-03T14:29:12Z</time>
      </trkpt>
      <trkpt lat="42.9395" lon="0.71896">
        <ele>1193.13</ele>
        <time>2018-11-03T14:29:32Z</time>
      </trkpt>
      <trkpt lat="42.93952" lon="0.7188">
        <ele>1190.25</ele>
        <time>2018-11-03T14:29:48Z</time>
      </trkpt>
      <trkpt lat="42.93954" lon="0.71858">
        <ele>1185.92</ele>
        <time>2018-11-03T14:30:07Z</time>
      </trkpt>
      <trkpt lat="42.93955" lon="0.71839">
        <ele>1181.12</ele>
        <time>2018-11-03T14:30:23Z</time>
      </trkpt>
      <trkpt lat="42.93952" lon="0.71818">
        <ele>1178.71</ele>
        <time>2018-11-03T14:30:37Z</time>
      </trkpt>
      <trkpt lat="42.93949" lon="0.71795">
        <ele>1173.91</ele>
        <time>2018-11-03T14:30:59Z</time>
      </trkpt>
      <trkpt lat="42.93952" lon="0.71763">
        <ele>1165.74</ele>
        <time>2018-11-03T14:31:30Z</time>
      </trkpt>
      <trkpt lat="42.93947" lon="0.71743">
        <ele>1158.53</ele>
        <time>2018-11-03T14:32:00Z</time>
      </trkpt>
      <trkpt lat="42.93951" lon="0.7172">
        <ele>1151.32</ele>
        <time>2018-11-03T14:32:34Z</time>
      </trkpt>
      <trkpt lat="42.93946" lon="0.71688">
        <ele>1143.63</ele>
        <time>2018-11-03T14:33:02Z</time>
      </trkpt>
      <trkpt lat="42.93937" lon="0.71648">
        <ele>1130.17</ele>
        <time>2018-11-03T14:34:09Z</time>
      </trkpt>
      <trkpt lat="42.93937" lon="0.71626">
        <ele>1123.92</ele>
        <time>2018-11-03T14:34:37Z</time>
      </trkpt>
      <trkpt lat="42.93932" lon="0.71594">
        <ele>1116.23</ele>
        <time>2018-11-03T14:35:14Z</time>
      </trkpt>
      <trkpt lat="42.93923" lon="0.7157">
        <ele>1109.98</ele>
        <time>2018-11-03T14:35:42Z</time>
      </trkpt>
      <trkpt lat="42.93914" lon="0.71535">
        <ele>1102.29</ele>
        <time>2018-11-03T14:36:11Z</time>
      </trkpt>
      <trkpt lat="42.93904" lon="0.71508">
        <ele>1094.12</ele>
        <time>2018-11-03T14:36:38Z</time>
      </trkpt>
      <trkpt lat="42.93888" lon="0.71481">
        <ele>1087.87</ele>
        <time>2018-11-03T14:37:06Z</time>
      </trkpt>
      <trkpt lat="42.93879" lon="0.71451">
        <ele>1083.54</ele>
        <time>2018-11-03T14:37:31Z</time>
      </trkpt>
      <trkpt lat="42.93871" lon="0.71422">
        <ele>1078.26</ele>
        <time>2018-11-03T14:37:56Z</time>
      </trkpt>
      <trkpt lat="42.93856" lon="0.71406">
        <ele>1072.01</ele>
        <time>2018-11-03T14:38:19Z</time>
      </trkpt>
      <trkpt lat="42.93843" lon="0.71396">
        <ele>1069.12</ele>
        <time>2018-11-03T14:38:38Z</time>
      </trkpt>
      <trkpt lat="42.93828" lon="0.71385">
        <ele>1063.84</ele>
        <time>2018-11-03T14:39:01Z</time>
      </trkpt>
      <trkpt lat="42.93812" lon="0.71371">
        <ele>1059.51</ele>
        <time>2018-11-03T14:39:17Z</time>
      </trkpt>
      <trkpt lat="42.93797" lon="0.71356">
        <ele>1055.67</ele>
        <time>2018-11-03T14:39:33Z</time>
      </trkpt>
      <trkpt lat="42.93786" lon="0.71342">
        <ele>1050.86</ele>
        <time>2018-11-03T14:39:48Z</time>
      </trkpt>
      <trkpt lat="42.93777" lon="0.71324">
        <ele>1044.13</ele>
        <time>2018-11-03T14:40:05Z</time>
      </trkpt>
      <trkpt lat="42.93769" lon="0.71303">
        <ele>1037.88</ele>
        <time>2018-11-03T14:40:23Z</time>
      </trkpt>
      <trkpt lat="42.93754" lon="0.71267">
        <ele>1028.75</ele>
        <time>2018-11-03T14:40:48Z</time>
      </trkpt>
      <trkpt lat="42.93742" lon="0.71233">
        <ele>1021.06</ele>
        <time>2018-11-03T14:41:43Z</time>
      </trkpt>
      <trkpt lat="42.93737" lon="0.71214">
        <ele>1016.25</ele>
        <time>2018-11-03T14:42:01Z</time>
      </trkpt>
      <trkpt lat="42.93726" lon="0.71192">
        <ele>1010.96</ele>
        <time>2018-11-03T14:42:22Z</time>
      </trkpt>
      <trkpt lat="42.93713" lon="0.71166">
        <ele>1004.72</ele>
        <time>2018-11-03T14:42:45Z</time>
      </trkpt>
      <trkpt lat="42.93701" lon="0.71148">
        <ele>1000.39</ele>
        <time>2018-11-03T14:43:01Z</time>
      </trkpt>
      <trkpt lat="42.93687" lon="0.71134">
        <ele>996.06</ele>
        <time>2018-11-03T14:43:19Z</time>
      </trkpt>
      <trkpt lat="42.93668" lon="0.71107">
        <ele>987.41</ele>
        <time>2018-11-03T14:43:46Z</time>
      </trkpt>
      <trkpt lat="42.93666" lon="0.71085">
        <ele>981.16</ele>
        <time>2018-11-03T14:44:02Z</time>
      </trkpt>
      <trkpt lat="42.93664" lon="0.71044">
        <ele>974.43</ele>
        <time>2018-11-03T14:44:33Z</time>
      </trkpt>
      <trkpt lat="42.93656" lon="0.71018">
        <ele>968.18</ele>
        <time>2018-11-03T14:44:57Z</time>
      </trkpt>
      <trkpt lat="42.93635" lon="0.71042">
        <ele>964.34</ele>
        <time>2018-11-03T14:45:34Z</time>
      </trkpt>
      <trkpt lat="42.93618" lon="0.71046">
        <ele>960.49</ele>
        <time>2018-11-03T14:45:52Z</time>
      </trkpt>
      <trkpt lat="42.93608" lon="0.71041">
        <ele>959.53</ele>
        <time>2018-11-03T14:46:04Z</time>
      </trkpt>
      <trkpt lat="42.93597" lon="0.71027">
        <ele>957.61</ele>
        <time>2018-11-03T14:46:18Z</time>
      </trkpt>
      <trkpt lat="42.93584" lon="0.71013">
        <ele>955.69</ele>
        <time>2018-11-03T14:46:33Z</time>
      </trkpt>
      <trkpt lat="42.9357" lon="0.71007">
        <ele>954.73</ele>
        <time>2018-11-03T14:46:42Z</time>
      </trkpt>
      <trkpt lat="42.93552" lon="0.71003">
        <ele>951.36</ele>
        <time>2018-11-03T14:47:01Z</time>
      </trkpt>
      <trkpt lat="42.93538" lon="0.70998">
        <ele>946.07</ele>
        <time>2018-11-03T14:47:17Z</time>
      </trkpt>
      <trkpt lat="42.93521" lon="0.70993">
        <ele>941.75</ele>
        <time>2018-11-03T14:47:33Z</time>
      </trkpt>
      <trkpt lat="42.93504" lon="0.71001">
        <ele>937.9</ele>
        <time>2018-11-03T14:47:52Z</time>
      </trkpt>
      <trkpt lat="42.93481" lon="0.71015">
        <ele>932.62</ele>
        <time>2018-11-03T14:48:14Z</time>
      </trkpt>
      <trkpt lat="42.9348" lon="0.71028">
        <ele>932.14</ele>
        <time>2018-11-03T14:48:25Z</time>
      </trkpt>
      <trkpt lat="42.93485" lon="0.71032">
        <ele>933.1</ele>
        <time>2018-11-03T14:48:50Z</time>
      </trkpt>
      <trkpt lat="42.93476" lon="0.71021">
        <ele>932.62</ele>
        <time>2018-11-03T14:49:14Z</time>
      </trkpt>
      <trkpt lat="42.93472" lon="0.71005">
        <ele>931.65</ele>
        <time>2018-11-03T14:49:28Z</time>
      </trkpt>
      <trkpt lat="42.93468" lon="0.70992">
        <ele>931.17</ele>
        <time>2018-11-03T14:49:41Z</time>
      </trkpt>
      <trkpt lat="42.93473" lon="0.70983">
        <ele>928.29</ele>
        <time>2018-11-03T14:49:56Z</time>
      </trkpt>
      <trkpt lat="42.9348" lon="0.7096">
        <ele>926.37</ele>
        <time>2018-11-03T14:50:12Z</time>
      </trkpt>
      <trkpt lat="42.93489" lon="0.70937">
        <ele>923.96</ele>
        <time>2018-11-03T14:50:30Z</time>
      </trkpt>
      <trkpt lat="42.93493" lon="0.70915">
        <ele>922.04</ele>
        <time>2018-11-03T14:50:47Z</time>
      </trkpt>
      <trkpt lat="42.93499" lon="0.70895">
        <ele>920.12</ele>
        <time>2018-11-03T14:51:05Z</time>
      </trkpt>
      <trkpt lat="42.93512" lon="0.70874">
        <ele>917.24</ele>
        <time>2018-11-03T14:51:27Z</time>
      </trkpt>
      <trkpt lat="42.93528" lon="0.70843">
        <ele>912.43</ele>
        <time>2018-11-03T14:51:50Z</time>
      </trkpt>
      <trkpt lat="42.93545" lon="0.7082">
        <ele>906.66</ele>
        <time>2018-11-03T14:52:13Z</time>
      </trkpt>
      <trkpt lat="42.93563" lon="0.70793">
        <ele>902.82</ele>
        <time>2018-11-03T14:52:31Z</time>
      </trkpt>
      <trkpt lat="42.93575" lon="0.70775">
        <ele>899.45</ele>
        <time>2018-11-03T14:52:49Z</time>
      </trkpt>
      <trkpt lat="42.93588" lon="0.70758">
        <ele>896.57</ele>
        <time>2018-11-03T14:53:03Z</time>
      </trkpt>
      <trkpt lat="42.93609" lon="0.70738">
        <ele>891.76</ele>
        <time>2018-11-03T14:53:32Z</time>
      </trkpt>
      <trkpt lat="42.93637" lon="0.70721">
        <ele>885.03</ele>
        <time>2018-11-03T14:54:00Z</time>
      </trkpt>
      <trkpt lat="42.93663" lon="0.70703">
        <ele>880.71</ele>
        <time>2018-11-03T14:54:25Z</time>
      </trkpt>
      <trkpt lat="42.93683" lon="0.70686">
        <ele>876.38</ele>
        <time>2018-11-03T14:54:45Z</time>
      </trkpt>
      <trkpt lat="42.93676" lon="0.70674">
        <ele>874.46</ele>
        <time>2018-11-03T14:54:59Z</time>
      </trkpt>
      <trkpt lat="42.93662" lon="0.70664">
        <ele>873.01</ele>
        <time>2018-11-03T14:55:11Z</time>
      </trkpt>
      <trkpt lat="42.93658" lon="0.70654">
        <ele>870.61</ele>
        <time>2018-11-03T14:55:26Z</time>
      </trkpt>
      <trkpt lat="42.93678" lon="0.70653">
        <ele>868.69</ele>
        <time>2018-11-03T14:55:42Z</time>
      </trkpt>
      <trkpt lat="42.93709" lon="0.70642">
        <ele>864.36</ele>
        <time>2018-11-03T14:56:11Z</time>
      </trkpt>
      <trkpt lat="42.93715" lon="0.70644">
        <ele>862.44</ele>
        <time>2018-11-03T14:56:54Z</time>
      </trkpt>
      <trkpt lat="42.93736" lon="0.70653">
        <ele>858.11</ele>
        <time>2018-11-03T14:57:41Z</time>
      </trkpt>
      <trkpt lat="42.93746" lon="0.70663">
        <ele>853.31</ele>
        <time>2018-11-03T14:57:59Z</time>
      </trkpt>
      <trkpt lat="42.93775" lon="0.70672">
        <ele>846.58</ele>
        <time>2018-11-03T14:58:33Z</time>
      </trkpt>
      <trkpt lat="42.93791" lon="0.70683">
        <ele>839.37</ele>
        <time>2018-11-03T14:58:55Z</time>
      </trkpt>
      <trkpt lat="42.93805" lon="0.70691">
        <ele>836</ele>
        <time>2018-11-03T14:59:11Z</time>
      </trkpt>
      <trkpt lat="42.93835" lon="0.70695">
        <ele>836</ele>
        <time>2018-11-03T14:59:28Z</time>
      </trkpt>
      <trkpt lat="42.93851" lon="0.70686">
        <ele>833.6</ele>
        <time>2018-11-03T14:59:41Z</time>
      </trkpt>
      <trkpt lat="42.93839" lon="0.7067">
        <ele>829.76</ele>
        <time>2018-11-03T15:00:00Z</time>
      </trkpt>
      <trkpt lat="42.93824" lon="0.70659">
        <ele>826.39</ele>
        <time>2018-11-03T15:00:14Z</time>
      </trkpt>
      <trkpt lat="42.93807" lon="0.70627">
        <ele>819.18</ele>
        <time>2018-11-03T15:00:47Z</time>
      </trkpt>
      <trkpt lat="42.93803" lon="0.70596">
        <ele>812.93</ele>
        <time>2018-11-03T15:01:16Z</time>
      </trkpt>
      <trkpt lat="42.93795" lon="0.70574">
        <ele>810.53</ele>
        <time>2018-11-03T15:01:36Z</time>
      </trkpt>
      <trkpt lat="42.93794" lon="0.7054">
        <ele>803.32</ele>
        <time>2018-11-03T15:02:07Z</time>
      </trkpt>
      <trkpt lat="42.93799" lon="0.70526">
        <ele>797.55</ele>
        <time>2018-11-03T15:02:35Z</time>
      </trkpt>
      <trkpt lat="42.93789" lon="0.70498">
        <ele>792.26</ele>
        <time>2018-11-03T15:02:56Z</time>
      </trkpt>
      <trkpt lat="42.93782" lon="0.7048">
        <ele>789.38</ele>
        <time>2018-11-03T15:03:12Z</time>
      </trkpt>
      <trkpt lat="42.93774" lon="0.70459">
        <ele>786.5</ele>
        <time>2018-11-03T15:03:33Z</time>
      </trkpt>
      <trkpt lat="42.93764" lon="0.70443">
        <ele>782.17</ele>
        <time>2018-11-03T15:03:58Z</time>
      </trkpt>
      <trkpt lat="42.93751" lon="0.70429">
        <ele>777.84</ele>
        <time>2018-11-03T15:04:20Z</time>
      </trkpt>
      <trkpt lat="42.93734" lon="0.70403">
        <ele>774.48</ele>
        <time>2018-11-03T15:04:49Z</time>
      </trkpt>
      <trkpt lat="42.93719" lon="0.70388">
        <ele>769.67</ele>
        <time>2018-11-03T15:05:16Z</time>
      </trkpt>
      <trkpt lat="42.9371" lon="0.70371">
        <ele>766.79</ele>
        <time>2018-11-03T15:05:36Z</time>
      </trkpt>
      <trkpt lat="42.93697" lon="0.70351">
        <ele>764.87</ele>
        <time>2018-11-03T15:05:55Z</time>
      </trkpt>
      <trkpt lat="42.93681" lon="0.70337">
        <ele>761.98</ele>
        <time>2018-11-03T15:06:14Z</time>
      </trkpt>
      <trkpt lat="42.93663" lon="0.70327">
        <ele>755.25</ele>
        <time>2018-11-03T15:06:42Z</time>
      </trkpt>
      <trkpt lat="42.93655" lon="0.70309">
        <ele>753.81</ele>
        <time>2018-11-03T15:06:54Z</time>
      </trkpt>
      <trkpt lat="42.93647" lon="0.7029">
        <ele>750.93</ele>
        <time>2018-11-03T15:07:12Z</time>
      </trkpt>
      <trkpt lat="42.93638" lon="0.70272">
        <ele>748.52</ele>
        <time>2018-11-03T15:07:30Z</time>
      </trkpt>
      <trkpt lat="42.93627" lon="0.70258">
        <ele>747.56</ele>
        <time>2018-11-03T15:08:06Z</time>
      </trkpt>
      <trkpt lat="42.93625" lon="0.70236">
        <ele>747.08</ele>
        <time>2018-11-03T15:08:23Z</time>
      </trkpt>
      <trkpt lat="42.93619" lon="0.70222">
        <ele>747.08</ele>
        <time>2018-11-03T15:08:34Z</time>
      </trkpt>
      <trkpt lat="42.93616" lon="0.70201">
        <ele>748.52</ele>
        <time>2018-11-03T15:08:52Z</time>
      </trkpt>
      <trkpt lat="42.93614" lon="0.70181">
        <ele>749.97</ele>
        <time>2018-11-03T15:09:09Z</time>
      </trkpt>
      <trkpt lat="42.93612" lon="0.70157">
        <ele>750.93</ele>
        <time>2018-11-03T15:09:51Z</time>
      </trkpt>
      <trkpt lat="42.93608" lon="0.70146">
        <ele>750.93</ele>
        <time>2018-11-03T15:11:08Z</time>
      </trkpt>
      <trkpt lat="42.93599" lon="0.70133">
        <ele>751.41</ele>
        <time>2018-11-03T15:11:53Z</time>
      </trkpt>
      <trkpt lat="42.93597" lon="0.70117">
        <ele>750.93</ele>
        <time>2018-11-03T15:12:09Z</time>
      </trkpt>
      <trkpt lat="42.9359" lon="0.70097">
        <ele>749.97</ele>
        <time>2018-11-03T15:12:28Z</time>
      </trkpt>
      <trkpt lat="42.93576" lon="0.70094">
        <ele>749.97</ele>
        <time>2018-11-03T15:12:42Z</time>
      </trkpt>
      <trkpt lat="42.93562" lon="0.70098">
        <ele>750.93</ele>
        <time>2018-11-03T15:12:52Z</time>
      </trkpt>
      <trkpt lat="42.93554" lon="0.70088">
        <ele>751.89</ele>
        <time>2018-11-03T15:13:02Z</time>
      </trkpt>
      <trkpt lat="42.93547" lon="0.70072">
        <ele>752.37</ele>
        <time>2018-11-03T15:13:15Z</time>
      </trkpt>
      <trkpt lat="42.9354" lon="0.70061">
        <ele>752.85</ele>
        <time>2018-11-03T15:13:25Z</time>
      </trkpt>
      <trkpt lat="42.9353" lon="0.70053">
        <ele>752.85</ele>
        <time>2018-11-03T15:13:37Z</time>
      </trkpt>
      <trkpt lat="42.93519" lon="0.70055">
        <ele>753.33</ele>
        <time>2018-11-03T15:13:45Z</time>
      </trkpt>
      <trkpt lat="42.93517" lon="0.70043">
        <ele>754.29</ele>
        <time>2018-11-03T15:13:54Z</time>
      </trkpt>
      <trkpt lat="42.93497" lon="0.70053">
        <ele>758.62</ele>
        <time>2018-11-03T15:14:29Z</time>
      </trkpt>
      <trkpt lat="42.93479" lon="0.7006">
        <ele>761.5</ele>
        <time>2018-11-03T15:15:14Z</time>
      </trkpt>
      <trkpt lat="42.93477" lon="0.70052">
        <ele>762.94</ele>
        <time>2018-11-03T15:17:16Z</time>
      </trkpt>
      <trkpt lat="42.9347" lon="0.70041">
        <ele>764.87</ele>
        <time>2018-11-03T15:17:28Z</time>
      </trkpt>
      <trkpt lat="42.9346" lon="0.70039">
        <ele>765.35</ele>
        <time>2018-11-03T15:17:36Z</time>
      </trkpt>
      <trkpt lat="42.93452" lon="0.70027">
        <ele>764.87</ele>
        <time>2018-11-03T15:17:49Z</time>
      </trkpt>
      <trkpt lat="42.93451" lon="0.70011">
        <ele>765.35</ele>
        <time>2018-11-03T15:18:02Z</time>
      </trkpt>
      <trkpt lat="42.93455" lon="0.69994">
        <ele>761.98</ele>
        <time>2018-11-03T15:18:16Z</time>
      </trkpt>
      <trkpt lat="42.93454" lon="0.69976">
        <ele>759.1</ele>
        <time>2018-11-03T15:18:29Z</time>
      </trkpt>
      <trkpt lat="42.93448" lon="0.69961">
        <ele>758.14</ele>
        <time>2018-11-03T15:18:37Z</time>
      </trkpt>
      <trkpt lat="42.93446" lon="0.69945">
        <ele>757.66</ele>
        <time>2018-11-03T15:18:45Z</time>
      </trkpt>
      <trkpt lat="42.93446" lon="0.69928">
        <ele>757.66</ele>
        <time>2018-11-03T15:18:54Z</time>
      </trkpt>
      <trkpt lat="42.93442" lon="0.69913">
        <ele>756.69</ele>
        <time>2018-11-03T15:19:03Z</time>
      </trkpt>
      <trkpt lat="42.93441" lon="0.69897">
        <ele>755.73</ele>
        <time>2018-11-03T15:19:14Z</time>
      </trkpt>
      <trkpt lat="42.93441" lon="0.69881">
        <ele>754.29</ele>
        <time>2018-11-03T15:19:25Z</time>
      </trkpt>
      <trkpt lat="42.93436" lon="0.69863">
        <ele>753.81</ele>
        <time>2018-11-03T15:19:35Z</time>
      </trkpt>
      <trkpt lat="42.93427" lon="0.69843">
        <ele>750.93</ele>
        <time>2018-11-03T15:19:51Z</time>
      </trkpt>
      <trkpt lat="42.93418" lon="0.69832">
        <ele>749</ele>
        <time>2018-11-03T15:20:01Z</time>
      </trkpt>
      <trkpt lat="42.93416" lon="0.69819">
        <ele>748.04</ele>
        <time>2018-11-03T15:20:09Z</time>
      </trkpt>
      <trkpt lat="42.93406" lon="0.69812">
        <ele>747.08</ele>
        <time>2018-11-03T15:20:19Z</time>
      </trkpt>
      <trkpt lat="42.93395" lon="0.69804">
        <ele>744.68</ele>
        <time>2018-11-03T15:20:29Z</time>
      </trkpt>
      <trkpt lat="42.93386" lon="0.69793">
        <ele>743.24</ele>
        <time>2018-11-03T15:20:40Z</time>
      </trkpt>
      <trkpt lat="42.93376" lon="0.69781">
        <ele>741.79</ele>
        <time>2018-11-03T15:20:51Z</time>
      </trkpt>
      <trkpt lat="42.93369" lon="0.69768">
        <ele>740.35</ele>
        <time>2018-11-03T15:21:02Z</time>
      </trkpt>
      <trkpt lat="42.9336" lon="0.69756">
        <ele>740.35</ele>
        <time>2018-11-03T15:21:13Z</time>
      </trkpt>
      <trkpt lat="42.93352" lon="0.69747">
        <ele>739.39</ele>
        <time>2018-11-03T15:21:23Z</time>
      </trkpt>
      <trkpt lat="42.93344" lon="0.6974">
        <ele>739.39</ele>
        <time>2018-11-03T15:21:32Z</time>
      </trkpt>
      <trkpt lat="42.93333" lon="0.69733">
        <ele>738.43</ele>
        <time>2018-11-03T15:21:42Z</time>
      </trkpt>
      <trkpt lat="42.93325" lon="0.69725">
        <ele>737.95</ele>
        <time>2018-11-03T15:21:52Z</time>
      </trkpt>
      <trkpt lat="42.93318" lon="0.69715">
        <ele>738.43</ele>
        <time>2018-11-03T15:22:02Z</time>
      </trkpt>
      <trkpt lat="42.93309" lon="0.69706">
        <ele>737.95</ele>
        <time>2018-11-03T15:22:12Z</time>
      </trkpt>
      <trkpt lat="42.933" lon="0.69695">
        <ele>737.47</ele>
        <time>2018-11-03T15:22:25Z</time>
      </trkpt>
      <trkpt lat="42.93294" lon="0.69679">
        <ele>736.03</ele>
        <time>2018-11-03T15:22:38Z</time>
      </trkpt>
      <trkpt lat="42.93297" lon="0.69665">
        <ele>734.58</ele>
        <time>2018-11-03T15:22:50Z</time>
      </trkpt>
      <trkpt lat="42.93291" lon="0.69651">
        <ele>733.14</ele>
        <time>2018-11-03T15:23:00Z</time>
      </trkpt>
      <trkpt lat="42.93283" lon="0.6964">
        <ele>731.22</ele>
        <time>2018-11-03T15:23:12Z</time>
      </trkpt>
      <trkpt lat="42.9328" lon="0.69625">
        <ele>728.82</ele>
        <time>2018-11-03T15:23:22Z</time>
      </trkpt>
      <trkpt lat="42.93278" lon="0.69609">
        <ele>727.37</ele>
        <time>2018-11-03T15:23:33Z</time>
      </trkpt>
      <trkpt lat="42.93279" lon="0.69589">
        <ele>725.45</ele>
        <time>2018-11-03T15:23:47Z</time>
      </trkpt>
      <trkpt lat="42.93279" lon="0.69571">
        <ele>724.01</ele>
        <time>2018-11-03T15:23:59Z</time>
      </trkpt>
      <trkpt lat="42.93277" lon="0.69551">
        <ele>723.05</ele>
        <time>2018-11-03T15:24:12Z</time>
      </trkpt>
      <trkpt lat="42.93277" lon="0.69535">
        <ele>722.09</ele>
        <time>2018-11-03T15:24:23Z</time>
      </trkpt>
      <trkpt lat="42.93275" lon="0.69519">
        <ele>720.65</ele>
        <time>2018-11-03T15:24:32Z</time>
      </trkpt>
      <trkpt lat="42.9327" lon="0.69505">
        <ele>719.2</ele>
        <time>2018-11-03T15:24:43Z</time>
      </trkpt>
      <trkpt lat="42.9326" lon="0.69493">
        <ele>717.76</ele>
        <time>2018-11-03T15:24:54Z</time>
      </trkpt>
      <trkpt lat="42.9325" lon="0.69482">
        <ele>715.84</ele>
        <time>2018-11-03T15:25:05Z</time>
      </trkpt>
      <trkpt lat="42.93242" lon="0.69468">
        <ele>713.92</ele>
        <time>2018-11-03T15:25:15Z</time>
      </trkpt>
      <trkpt lat="42.93242" lon="0.69451">
        <ele>712.47</ele>
        <time>2018-11-03T15:25:26Z</time>
      </trkpt>
      <trkpt lat="42.93242" lon="0.69433">
        <ele>711.03</ele>
        <time>2018-11-03T15:25:37Z</time>
      </trkpt>
      <trkpt lat="42.93243" lon="0.69416">
        <ele>709.59</ele>
        <time>2018-11-03T15:25:47Z</time>
      </trkpt>
      <trkpt lat="42.93241" lon="0.69401">
        <ele>708.15</ele>
        <time>2018-11-03T15:25:55Z</time>
      </trkpt>
      <trkpt lat="42.93238" lon="0.69386">
        <ele>706.71</ele>
        <time>2018-11-03T15:26:03Z</time>
      </trkpt>
      <trkpt lat="42.93237" lon="0.69374">
        <ele>705.75</ele>
        <time>2018-11-03T15:26:13Z</time>
      </trkpt>
      <trkpt lat="42.93235" lon="0.6936">
        <ele>704.78</ele>
        <time>2018-11-03T15:26:23Z</time>
      </trkpt>
      <trkpt lat="42.93234" lon="0.69344">
        <ele>703.82</ele>
        <time>2018-11-03T15:26:34Z</time>
      </trkpt>
      <trkpt lat="42.93232" lon="0.69329">
        <ele>702.86</ele>
        <time>2018-11-03T15:26:45Z</time>
      </trkpt>
      <trkpt lat="42.9323" lon="0.69314">
        <ele>700.94</ele>
        <time>2018-11-03T15:26:55Z</time>
      </trkpt>
      <trkpt lat="42.93228" lon="0.69299">
        <ele>699.5</ele>
        <time>2018-11-03T15:27:05Z</time>
      </trkpt>
      <trkpt lat="42.93225" lon="0.69286">
        <ele>699.02</ele>
        <time>2018-11-03T15:27:13Z</time>
      </trkpt>
      <trkpt lat="42.93222" lon="0.69271">
        <ele>698.05</ele>
        <time>2018-11-03T15:27:24Z</time>
      </trkpt>
      <trkpt lat="42.9322" lon="0.69257">
        <ele>697.09</ele>
        <time>2018-11-03T15:27:33Z</time>
      </trkpt>
      <trkpt lat="42.93218" lon="0.69241">
        <ele>695.65</ele>
        <time>2018-11-03T15:27:43Z</time>
      </trkpt>
      <trkpt lat="42.93217" lon="0.69225">
        <ele>694.21</ele>
        <time>2018-11-03T15:27:53Z</time>
      </trkpt>
      <trkpt lat="42.93216" lon="0.69212">
        <ele>692.29</ele>
        <time>2018-11-03T15:28:02Z</time>
      </trkpt>
      <trkpt lat="42.93212" lon="0.69198">
        <ele>691.81</ele>
        <time>2018-11-03T15:28:13Z</time>
      </trkpt>
      <trkpt lat="42.93208" lon="0.69184">
        <ele>691.33</ele>
        <time>2018-11-03T15:28:26Z</time>
      </trkpt>
    </trkseg>
  </trk>
</gpx>